<?xml version="1.0" encoding="UTF-8" standalone="no" ?>
<gpx xmlns="http://www.topografix.com/GPX/1/1" xmlns:xsi="http://www.w3.org/2001/XMLSchema-instance" xsi:schemaLocation="http://www.topografix.com/GPX/1/1 http://www.topografix.com/GPX/1/1/gpx.xsd" version="1.1" creator="VisuGPX - https://www.visugpx.com">
  <metadata>
    <name>Boucle Viaduc Pons de Caramany – Une vue géniale au départ de Planèzes</name>
    <desc><![CDATA[

]]></desc>
  </metadata>
  <wpt lat="42.76559" lon="2.6665">
    <ele>87</ele>
    <name><![CDATA[CAMPING LA TOUR de FRANCE]]></name>
    <type><![CDATA[camping]]></type>
  </wpt>
  <wpt lat="42.76749" lon="2.62006">
    <ele>147.4</ele>
    <name><![CDATA[Parking]]></name>
  </wpt>
  <wpt lat="42.74536" lon="2.56658">
    <ele>163</ele>
    <name><![CDATA[Lac de Caramany]]></name>
  </wpt>
  <wpt lat="42.74302" lon="2.57129">
    <ele>163.5</ele>
    <name><![CDATA[Viaduc Pons de Caramany]]></name>
  </wpt>
  <wpt lat="42.7367" lon="2.57027">
    <ele>231.8</ele>
    <name><![CDATA[Vue sur le lac de Caramany et Caramany]]></name>
  </wpt>
  <wpt lat="42.72883" lon="2.58202">
    <ele>345.5</ele>
    <name><![CDATA[Une vue géniale]]></name>
  </wpt>
  <wpt lat="42.72275" lon="2.59246">
    <ele>388.8</ele>
    <name><![CDATA[Vue sur les vignobles et les montagnes dans le Parc naturel régional Corbières-Fenouillèdes]]></name>
  </wpt>
  <wpt lat="42.74695" lon="2.63586">
    <ele>287.9</ele>
    <name><![CDATA[Domaine de Cuxous]]></name>
  </wpt>
  <wpt lat="42.74777" lon="2.5205">
    <ele>371</ele>
    <name><![CDATA[Les dolmens de Trilla]]></name>
    <desc><![CDATA[Les Dolmens de Trilla sont très « remaniés » et les dalles de couverture comme leurs supports ont été déplacées. Les deux monuments se trouvent chacun sur une petite butte naturelle constituée par un affleurement rocheux. On perçoit par les deux constructions un amoncellement de pierres, constituant le tumulus. Celui-ci a permis de placer la dalle de couverture sur les dalles droites. Ces tombes visibles de loin, ont pu servir de signalisation de territoire dans la Préhistoire récente (entre – 2 200 et – 1 800 ans avant notre ère). Fortement réoccupés durant toute leur histoire, leur fouille n’a pas livré de mobilier archéologique permettant d’affiner la datation de leur utilisation initiale.]]></desc>
  </wpt>
  <trk>
    <name><![CDATA[Boucle Viaduc Pons de Caramany – Une vue géniale au départ de Planèzes]]></name>
    <extensions>
      <line xmlns="http://www.topografix.com/GPX/gpx_style/0/2">
        <color>F04800</color>
        <opacity>1</opacity>
        <width>7</width>
          <extensions>
            <sens>1</sens>
          </extensions>
      </line>
    </extensions>
    <trkseg>
      <trkpt lat="42.7675" lon="2.62004">
        <ele>139.670133</ele>
        <time>2026-05-22T19:23:53.750Z</time>
      </trkpt>
      <trkpt lat="42.76742" lon="2.61993">
        <ele>139.670133</ele>
        <time>2026-05-22T19:23:56.253Z</time>
      </trkpt>
      <trkpt lat="42.76743" lon="2.61985">
        <ele>139.670133</ele>
        <time>2026-05-22T19:23:57.516Z</time>
      </trkpt>
      <trkpt lat="42.76727" lon="2.61979">
        <ele>139.670133</ele>
        <time>2026-05-22T19:24:00.336Z</time>
      </trkpt>
      <trkpt lat="42.76711" lon="2.61964">
        <ele>139.670133</ele>
        <time>2026-05-22T19:24:03.215Z</time>
      </trkpt>
      <trkpt lat="42.76697" lon="2.61958">
        <ele>139.670133</ele>
        <time>2026-05-22T19:24:05.355Z</time>
      </trkpt>
      <trkpt lat="42.76672" lon="2.61911">
        <ele>137.3902</ele>
        <time>2026-05-22T19:24:10.785Z</time>
      </trkpt>
      <trkpt lat="42.76668" lon="2.619">
        <ele>136.435684</ele>
        <time>2026-05-22T19:24:11.845Z</time>
      </trkpt>
      <trkpt lat="42.76656" lon="2.61901">
        <ele>135.136337</ele>
        <time>2026-05-22T19:24:13.367Z</time>
      </trkpt>
      <trkpt lat="42.7665" lon="2.61915">
        <ele>133.874443</ele>
        <time>2026-05-22T19:24:14.819Z</time>
      </trkpt>
      <trkpt lat="42.76635" lon="2.61913">
        <ele>132.354396</ele>
        <time>2026-05-22T19:24:16.566Z</time>
      </trkpt>
      <trkpt lat="42.76626" lon="2.61913">
        <ele>131.373418</ele>
        <time>2026-05-22T19:24:17.689Z</time>
      </trkpt>
      <trkpt lat="42.76626" lon="2.61916">
        <ele>131.114913</ele>
        <time>2026-05-22T19:24:17.995Z</time>
      </trkpt>
      <trkpt lat="42.7662" lon="2.61918">
        <ele>130.497962</ele>
        <time>2026-05-22T19:24:18.701Z</time>
      </trkpt>
      <trkpt lat="42.76616" lon="2.61932">
        <ele>129.288833</ele>
        <time>2026-05-22T19:24:20.097Z</time>
      </trkpt>
      <trkpt lat="42.76602" lon="2.61925">
        <ele>127.630939</ele>
        <time>2026-05-22T19:24:21.993Z</time>
      </trkpt>
      <trkpt lat="42.76599" lon="2.61917">
        <ele>126.930116</ele>
        <time>2026-05-22T19:24:22.799Z</time>
      </trkpt>
      <trkpt lat="42.76589" lon="2.61914">
        <ele>125.835007</ele>
        <time>2026-05-22T19:24:24.047Z</time>
      </trkpt>
      <trkpt lat="42.76582" lon="2.61908">
        <ele>124.929389</ele>
        <time>2026-05-22T19:24:25.068Z</time>
      </trkpt>
      <trkpt lat="42.76575" lon="2.61895">
        <ele>123.7128</ele>
        <time>2026-05-22T19:24:26.457Z</time>
      </trkpt>
      <trkpt lat="42.76565" lon="2.61895">
        <ele>122.57019</ele>
        <time>2026-05-22T19:24:27.752Z</time>
      </trkpt>
      <trkpt lat="42.76561" lon="2.61891">
        <ele>122.053313</ele>
        <time>2026-05-22T19:24:28.339Z</time>
      </trkpt>
      <trkpt lat="42.76552" lon="2.6188">
        <ele>120.802256</ele>
        <time>2026-05-22T19:24:30.749Z</time>
      </trkpt>
      <trkpt lat="42.7655" lon="2.61869">
        <ele>120.120957</ele>
        <time>2026-05-22T19:24:32.501Z</time>
      </trkpt>
      <trkpt lat="42.76546" lon="2.61878">
        <ele>119.732855</ele>
        <time>2026-05-22T19:24:34.168Z</time>
      </trkpt>
      <trkpt lat="42.76543" lon="2.61878">
        <ele>119.544565</ele>
        <time>2026-05-22T19:24:34.966Z</time>
      </trkpt>
      <trkpt lat="42.7654" lon="2.61861">
        <ele>118.91581</ele>
        <time>2026-05-22T19:24:37.688Z</time>
      </trkpt>
      <trkpt lat="42.76543" lon="2.61847">
        <ele>118.400189</ele>
        <time>2026-05-22T19:24:39.935Z</time>
      </trkpt>
      <trkpt lat="42.76541" lon="2.61846">
        <ele>118.304035</ele>
        <time>2026-05-22T19:24:40.361Z</time>
      </trkpt>
      <trkpt lat="42.76533" lon="2.61854">
        <ele>117.80454</ele>
        <time>2026-05-22T19:24:42.603Z</time>
      </trkpt>
      <trkpt lat="42.7653" lon="2.61853">
        <ele>117.677882</ele>
        <time>2026-05-22T19:24:43.165Z</time>
      </trkpt>
      <trkpt lat="42.76534" lon="2.61843">
        <ele>117.272609</ele>
        <time>2026-05-22T19:24:45.018Z</time>
      </trkpt>
      <trkpt lat="42.76534" lon="2.61823">
        <ele>116.533945</ele>
        <time>2026-05-22T19:24:48.559Z</time>
      </trkpt>
      <trkpt lat="42.7652" lon="2.61815">
        <ele>115.797889</ele>
        <time>2026-05-22T19:24:52.346Z</time>
      </trkpt>
      <trkpt lat="42.76522" lon="2.61778">
        <ele>114.462132</ele>
        <time>2026-05-22T19:24:59.868Z</time>
      </trkpt>
      <trkpt lat="42.76517" lon="2.61735">
        <ele>112.852809</ele>
        <time>2026-05-22T19:25:09.194Z</time>
      </trkpt>
      <trkpt lat="42.76513" lon="2.61718">
        <ele>112.227078</ele>
        <time>2026-05-22T19:25:12.957Z</time>
      </trkpt>
      <trkpt lat="42.76494" lon="2.61668">
        <ele>111.593563</ele>
        <time>2026-05-22T19:25:26.140Z</time>
      </trkpt>
      <trkpt lat="42.76494" lon="2.61655">
        <ele>111.652112</ele>
        <time>2026-05-22T19:25:29.534Z</time>
      </trkpt>
      <trkpt lat="42.76526" lon="2.61645">
        <ele>111.850291</ele>
        <time>2026-05-22T19:25:37.146Z</time>
      </trkpt>
      <trkpt lat="42.76558" lon="2.61628">
        <ele>112.060067</ele>
        <time>2026-05-22T19:25:45.450Z</time>
      </trkpt>
      <trkpt lat="42.76572" lon="2.61618">
        <ele>112.153053</ele>
        <time>2026-05-22T19:25:49.021Z</time>
      </trkpt>
      <trkpt lat="42.76564" lon="2.61609">
        <ele>112.217302</ele>
        <time>2026-05-22T19:25:52.677Z</time>
      </trkpt>
      <trkpt lat="42.76463" lon="2.6123">
        <ele>114.594749</ele>
        <time>2026-05-22T19:27:42.112Z</time>
      </trkpt>
      <trkpt lat="42.76457" lon="2.61173">
        <ele>114.76427</ele>
        <time>2026-05-22T19:27:57.055Z</time>
      </trkpt>
      <trkpt lat="42.76445" lon="2.61122">
        <ele>114.920359</ele>
        <time>2026-05-22T19:28:09.594Z</time>
      </trkpt>
      <trkpt lat="42.76446" lon="2.61101">
        <ele>114.982014</ele>
        <time>2026-05-22T19:28:14.301Z</time>
      </trkpt>
      <trkpt lat="42.76454" lon="2.61084">
        <ele>115.04171</ele>
        <time>2026-05-22T19:28:18.781Z</time>
      </trkpt>
      <trkpt lat="42.7646" lon="2.61077">
        <ele>115.079045</ele>
        <time>2026-05-22T19:28:21.176Z</time>
      </trkpt>
      <trkpt lat="42.76496" lon="2.61056">
        <ele>115.276697</ele>
        <time>2026-05-22T19:28:32.476Z</time>
      </trkpt>
      <trkpt lat="42.76498" lon="2.6105">
        <ele>115.300273</ele>
        <time>2026-05-22T19:28:33.852Z</time>
      </trkpt>
      <trkpt lat="42.76491" lon="2.61044">
        <ele>115.341673</ele>
        <time>2026-05-22T19:28:36.251Z</time>
      </trkpt>
      <trkpt lat="42.76494" lon="2.61029">
        <ele>115.396815</ele>
        <time>2026-05-22T19:28:39.578Z</time>
      </trkpt>
      <trkpt lat="42.76481" lon="2.61023">
        <ele>115.469375</ele>
        <time>2026-05-22T19:28:44.278Z</time>
      </trkpt>
      <trkpt lat="42.76457" lon="2.61018">
        <ele>115.5894</ele>
        <time>2026-05-22T19:28:53.449Z</time>
      </trkpt>
      <trkpt lat="42.76451" lon="2.61012">
        <ele>115.630583</ele>
        <time>2026-05-22T19:28:56.378Z</time>
      </trkpt>
      <trkpt lat="42.76464" lon="2.61004">
        <ele>115.707116</ele>
        <time>2026-05-22T19:29:00.994Z</time>
      </trkpt>
      <trkpt lat="42.76486" lon="2.61003">
        <ele>115.814897</ele>
        <time>2026-05-22T19:29:07.424Z</time>
      </trkpt>
      <trkpt lat="42.76513" lon="2.61008">
        <ele>115.952531</ele>
        <time>2026-05-22T19:29:15.745Z</time>
      </trkpt>
      <trkpt lat="42.76522" lon="2.61">
        <ele>116.124004</ele>
        <time>2026-05-22T19:29:19.524Z</time>
      </trkpt>
      <trkpt lat="42.76527" lon="2.60981">
        <ele>116.402959</ele>
        <time>2026-05-22T19:29:24.616Z</time>
      </trkpt>
      <trkpt lat="42.76469" lon="2.6096">
        <ele>117.523253</ele>
        <time>2026-05-22T19:29:42.642Z</time>
      </trkpt>
      <trkpt lat="42.7642" lon="2.60928">
        <ele>118.546841</ele>
        <time>2026-05-22T19:29:59.787Z</time>
      </trkpt>
      <trkpt lat="42.76409" lon="2.60913">
        <ele>118.846964</ele>
        <time>2026-05-22T19:30:04.348Z</time>
      </trkpt>
      <trkpt lat="42.76377" lon="2.60853">
        <ele>119.502544</ele>
        <time>2026-05-22T19:30:18.969Z</time>
      </trkpt>
      <trkpt lat="42.76368" lon="2.60824">
        <ele>119.637646</ele>
        <time>2026-05-22T19:30:24.188Z</time>
      </trkpt>
      <trkpt lat="42.76368" lon="2.60802">
        <ele>119.732875</ele>
        <time>2026-05-22T19:30:27.485Z</time>
      </trkpt>
      <trkpt lat="42.76368" lon="2.60785">
        <ele>119.803989</ele>
        <time>2026-05-22T19:30:29.868Z</time>
      </trkpt>
      <trkpt lat="42.76354" lon="2.60754">
        <ele>119.958177</ele>
        <time>2026-05-22T19:30:35.577Z</time>
      </trkpt>
      <trkpt lat="42.76328" lon="2.60727">
        <ele>120.141774</ele>
        <time>2026-05-22T19:30:42.725Z</time>
      </trkpt>
      <trkpt lat="42.76287" lon="2.60703">
        <ele>120.393046</ele>
        <time>2026-05-22T19:30:51.463Z</time>
      </trkpt>
      <trkpt lat="42.7624" lon="2.60681">
        <ele>120.579246</ele>
        <time>2026-05-22T19:31:00.280Z</time>
      </trkpt>
      <trkpt lat="42.7616" lon="2.60681">
        <ele>120.874669</ele>
        <time>2026-05-22T19:31:18.215Z</time>
      </trkpt>
      <trkpt lat="42.76148" lon="2.60678">
        <ele>120.919018</ele>
        <time>2026-05-22T19:31:20.990Z</time>
      </trkpt>
      <trkpt lat="42.76139" lon="2.60671">
        <ele>120.957995</ele>
        <time>2026-05-22T19:31:23.261Z</time>
      </trkpt>
      <trkpt lat="42.76124" lon="2.60645">
        <ele>121.053607</ele>
        <time>2026-05-22T19:31:28.184Z</time>
      </trkpt>
      <trkpt lat="42.76087" lon="2.60497">
        <ele>122.055889</ele>
        <time>2026-05-22T19:31:56.994Z</time>
      </trkpt>
      <trkpt lat="42.76081" lon="2.60464">
        <ele>122.269405</ele>
        <time>2026-05-22T19:32:02.918Z</time>
      </trkpt>
      <trkpt lat="42.7608" lon="2.60442">
        <ele>122.412467</ele>
        <time>2026-05-22T19:32:06.783Z</time>
      </trkpt>
      <trkpt lat="42.76082" lon="2.60425">
        <ele>122.525217</ele>
        <time>2026-05-22T19:32:09.720Z</time>
      </trkpt>
      <trkpt lat="42.76094" lon="2.60388">
        <ele>122.474018</ele>
        <time>2026-05-22T19:32:16.430Z</time>
      </trkpt>
      <trkpt lat="42.76097" lon="2.60357">
        <ele>122.299196</ele>
        <time>2026-05-22T19:32:21.378Z</time>
      </trkpt>
      <trkpt lat="42.76084" lon="2.60184">
        <ele>121.3178</ele>
        <time>2026-05-22T19:32:42.353Z</time>
      </trkpt>
      <trkpt lat="42.76087" lon="2.60105">
        <ele>121.429855</ele>
        <time>2026-05-22T19:32:51.718Z</time>
      </trkpt>
      <trkpt lat="42.76089" lon="2.60074">
        <ele>121.520825</ele>
        <time>2026-05-22T19:32:55.543Z</time>
      </trkpt>
      <trkpt lat="42.7609" lon="2.60048">
        <ele>121.597505</ele>
        <time>2026-05-22T19:32:58.988Z</time>
      </trkpt>
      <trkpt lat="42.76094" lon="2.59974">
        <ele>121.818554</ele>
        <time>2026-05-22T19:33:11.350Z</time>
      </trkpt>
      <trkpt lat="42.76093" lon="2.59956">
        <ele>121.872355</ele>
        <time>2026-05-22T19:33:15.255Z</time>
      </trkpt>
      <trkpt lat="42.76084" lon="2.59864">
        <ele>123.721466</ele>
        <time>2026-05-22T19:33:39.146Z</time>
      </trkpt>
      <trkpt lat="42.76074" lon="2.59786">
        <ele>125.995675</ele>
        <time>2026-05-22T19:34:04.816Z</time>
      </trkpt>
      <trkpt lat="42.76064" lon="2.59753">
        <ele>127.007717</ele>
        <time>2026-05-22T19:34:16.278Z</time>
      </trkpt>
      <trkpt lat="42.7604" lon="2.59696">
        <ele>128.863719</ele>
        <time>2026-05-22T19:34:35.890Z</time>
      </trkpt>
      <trkpt lat="42.76017" lon="2.59678">
        <ele>129.234131</ele>
        <time>2026-05-22T19:34:48.866Z</time>
      </trkpt>
      <trkpt lat="42.76012" lon="2.59668">
        <ele>129.338452</ele>
        <time>2026-05-22T19:34:52.737Z</time>
      </trkpt>
      <trkpt lat="42.76007" lon="2.59644">
        <ele>129.550225</ele>
        <time>2026-05-22T19:35:00.354Z</time>
      </trkpt>
      <trkpt lat="42.75992" lon="2.59634">
        <ele>129.74644</ele>
        <time>2026-05-22T19:35:04.884Z</time>
      </trkpt>
      <trkpt lat="42.75947" lon="2.59619">
        <ele>130.297318</ele>
        <time>2026-05-22T19:35:15.361Z</time>
      </trkpt>
      <trkpt lat="42.75928" lon="2.59602">
        <ele>130.566696</ele>
        <time>2026-05-22T19:35:19.631Z</time>
      </trkpt>
      <trkpt lat="42.7592" lon="2.59592">
        <ele>130.696669</ele>
        <time>2026-05-22T19:35:21.688Z</time>
      </trkpt>
      <trkpt lat="42.75913" lon="2.5957">
        <ele>130.904286</ele>
        <time>2026-05-22T19:35:24.798Z</time>
      </trkpt>
      <trkpt lat="42.75905" lon="2.59524">
        <ele>131.225709</ele>
        <time>2026-05-22T19:35:30.709Z</time>
      </trkpt>
      <trkpt lat="42.75899" lon="2.59508">
        <ele>131.326234</ele>
        <time>2026-05-22T19:35:32.961Z</time>
      </trkpt>
      <trkpt lat="42.75833" lon="2.59403">
        <ele>132.089611</ele>
        <time>2026-05-22T19:35:54.260Z</time>
      </trkpt>
      <trkpt lat="42.75817" lon="2.59376">
        <ele>132.280765</ele>
        <time>2026-05-22T19:36:01.537Z</time>
      </trkpt>
      <trkpt lat="42.75811" lon="2.59359">
        <ele>132.384607</ele>
        <time>2026-05-22T19:36:05.751Z</time>
      </trkpt>
      <trkpt lat="42.75808" lon="2.59326">
        <ele>133.009788</ele>
        <time>2026-05-22T19:36:13.878Z</time>
      </trkpt>
      <trkpt lat="42.75809" lon="2.5929">
        <ele>133.781947</ele>
        <time>2026-05-22T19:36:23.653Z</time>
      </trkpt>
      <trkpt lat="42.75813" lon="2.59262">
        <ele>134.408768</ele>
        <time>2026-05-22T19:36:32.267Z</time>
      </trkpt>
      <trkpt lat="42.75828" lon="2.59233">
        <ele>135.172765</ele>
        <time>2026-05-22T19:36:43.051Z</time>
      </trkpt>
      <trkpt lat="42.75832" lon="2.59219">
        <ele>135.499818</ele>
        <time>2026-05-22T19:36:47.546Z</time>
      </trkpt>
      <trkpt lat="42.75834" lon="2.59201">
        <ele>135.902402</ele>
        <time>2026-05-22T19:36:52.832Z</time>
      </trkpt>
      <trkpt lat="42.75835" lon="2.59187">
        <ele>136.2064</ele>
        <time>2026-05-22T19:36:56.672Z</time>
      </trkpt>
      <trkpt lat="42.7583" lon="2.59163">
        <ele>136.734671</ele>
        <time>2026-05-22T19:37:02.773Z</time>
      </trkpt>
      <trkpt lat="42.7582" lon="2.59132">
        <ele>137.482091</ele>
        <time>2026-05-22T19:37:10.420Z</time>
      </trkpt>
      <trkpt lat="42.75809" lon="2.5911">
        <ele>137.862395</ele>
        <time>2026-05-22T19:37:15.132Z</time>
      </trkpt>
      <trkpt lat="42.75799" lon="2.59098">
        <ele>138.028451</ele>
        <time>2026-05-22T19:37:18.246Z</time>
      </trkpt>
      <trkpt lat="42.75727" lon="2.59052">
        <ele>138.990654</ele>
        <time>2026-05-22T19:37:33.819Z</time>
      </trkpt>
      <trkpt lat="42.75718" lon="2.59041">
        <ele>139.138809</ele>
        <time>2026-05-22T19:37:36.328Z</time>
      </trkpt>
      <trkpt lat="42.75686" lon="2.58991">
        <ele>139.732532</ele>
        <time>2026-05-22T19:37:48.247Z</time>
      </trkpt>
      <trkpt lat="42.75672" lon="2.58973">
        <ele>140.075728</ele>
        <time>2026-05-22T19:37:54.034Z</time>
      </trkpt>
      <trkpt lat="42.75656" lon="2.58937">
        <ele>141.456374</ele>
        <time>2026-05-22T19:38:05.213Z</time>
      </trkpt>
      <trkpt lat="42.75648" lon="2.58909">
        <ele>142.428689</ele>
        <time>2026-05-22T19:38:14.301Z</time>
      </trkpt>
      <trkpt lat="42.75639" lon="2.58844">
        <ele>144.603496</ele>
        <time>2026-05-22T19:38:36.853Z</time>
      </trkpt>
      <trkpt lat="42.75634" lon="2.58824">
        <ele>145.280373</ele>
        <time>2026-05-22T19:38:44.328Z</time>
      </trkpt>
      <trkpt lat="42.75625" lon="2.58804">
        <ele>146.038711</ele>
        <time>2026-05-22T19:38:52.501Z</time>
      </trkpt>
      <trkpt lat="42.75503" lon="2.58603">
        <ele>155.523814</ele>
        <time>2026-05-22T19:40:14.539Z</time>
      </trkpt>
      <trkpt lat="42.75493" lon="2.58575">
        <ele>156.695858</ele>
        <time>2026-05-22T19:40:24.730Z</time>
      </trkpt>
      <trkpt lat="42.75466" lon="2.58419">
        <ele>164.921748</ele>
        <time>2026-05-22T19:41:28.260Z</time>
      </trkpt>
      <trkpt lat="42.75464" lon="2.58384">
        <ele>166.726258</ele>
        <time>2026-05-22T19:41:43.322Z</time>
      </trkpt>
      <trkpt lat="42.75468" lon="2.58334">
        <ele>169.335968</ele>
        <time>2026-05-22T19:42:04.580Z</time>
      </trkpt>
      <trkpt lat="42.75467" lon="2.58309">
        <ele>170.836191</ele>
        <time>2026-05-22T19:42:15.519Z</time>
      </trkpt>
      <trkpt lat="42.75462" lon="2.58291">
        <ele>172.039188</ele>
        <time>2026-05-22T19:42:23.691Z</time>
      </trkpt>
      <trkpt lat="42.75432" lon="2.58251">
        <ele>175.704582</ele>
        <time>2026-05-22T19:42:49.739Z</time>
      </trkpt>
      <trkpt lat="42.75411" lon="2.58217">
        <ele>178.453731</ele>
        <time>2026-05-22T19:43:09.500Z</time>
      </trkpt>
      <trkpt lat="42.75388" lon="2.58173">
        <ele>181.883966</ele>
        <time>2026-05-22T19:43:33.160Z</time>
      </trkpt>
      <trkpt lat="42.7536" lon="2.581">
        <ele>187.704584</ele>
        <time>2026-05-22T19:44:12.997Z</time>
      </trkpt>
      <trkpt lat="42.75351" lon="2.58072">
        <ele>190.396761</ele>
        <time>2026-05-22T19:44:29.919Z</time>
      </trkpt>
      <trkpt lat="42.75343" lon="2.58037">
        <ele>193.558933</ele>
        <time>2026-05-22T19:44:50.955Z</time>
      </trkpt>
      <trkpt lat="42.75341" lon="2.58012">
        <ele>195.706272</ele>
        <time>2026-05-22T19:45:05.617Z</time>
      </trkpt>
      <trkpt lat="42.75348" lon="2.57906">
        <ele>204.858701</ele>
        <time>2026-05-22T19:46:09.807Z</time>
      </trkpt>
      <trkpt lat="42.7534" lon="2.57828">
        <ele>211.943083</ele>
        <time>2026-05-22T19:47:00.732Z</time>
      </trkpt>
      <trkpt lat="42.7532" lon="2.57765">
        <ele>218.044723</ele>
        <time>2026-05-22T19:47:43.459Z</time>
      </trkpt>
      <trkpt lat="42.75313" lon="2.57752">
        <ele>219.509764</ele>
        <time>2026-05-22T19:47:53.658Z</time>
      </trkpt>
      <trkpt lat="42.75306" lon="2.57736">
        <ele>221.16351</ele>
        <time>2026-05-22T19:48:05.039Z</time>
      </trkpt>
      <trkpt lat="42.75294" lon="2.57715">
        <ele>223.56813</ele>
        <time>2026-05-22T19:48:21.222Z</time>
      </trkpt>
      <trkpt lat="42.75253" lon="2.57669">
        <ele>228.932837</ele>
        <time>2026-05-22T19:49:00.800Z</time>
      </trkpt>
      <trkpt lat="42.75241" lon="2.57658">
        <ele>229.502605</ele>
        <time>2026-05-22T19:49:10.521Z</time>
      </trkpt>
      <trkpt lat="42.75226" lon="2.57652">
        <ele>230.084095</ele>
        <time>2026-05-22T19:49:19.562Z</time>
      </trkpt>
      <trkpt lat="42.75215" lon="2.57653">
        <ele>230.486147</ele>
        <time>2026-05-22T19:49:25.245Z</time>
      </trkpt>
      <trkpt lat="42.75199" lon="2.57666">
        <ele>231.218999</ele>
        <time>2026-05-22T19:49:34.433Z</time>
      </trkpt>
      <trkpt lat="42.75193" lon="2.57681">
        <ele>231.671729</ele>
        <time>2026-05-22T19:49:39.357Z</time>
      </trkpt>
      <trkpt lat="42.75191" lon="2.57698">
        <ele>232.147067</ele>
        <time>2026-05-22T19:49:44.118Z</time>
      </trkpt>
      <trkpt lat="42.75195" lon="2.5772">
        <ele>232.79037</ele>
        <time>2026-05-22T19:49:49.882Z</time>
      </trkpt>
      <trkpt lat="42.75217" lon="2.57769">
        <ele>234.384913</ele>
        <time>2026-05-22T19:49:59.788Z</time>
      </trkpt>
      <trkpt lat="42.75223" lon="2.57797">
        <ele>235.210109</ele>
        <time>2026-05-22T19:50:03.122Z</time>
      </trkpt>
      <trkpt lat="42.75223" lon="2.57815">
        <ele>234.932493</ele>
        <time>2026-05-22T19:50:04.924Z</time>
      </trkpt>
      <trkpt lat="42.75208" lon="2.57883">
        <ele>233.465441</ele>
        <time>2026-05-22T19:50:11.790Z</time>
      </trkpt>
      <trkpt lat="42.75204" lon="2.579">
        <ele>233.072895</ele>
        <time>2026-05-22T19:50:13.610Z</time>
      </trkpt>
      <trkpt lat="42.75194" lon="2.57919">
        <ele>232.609543</ele>
        <time>2026-05-22T19:50:15.789Z</time>
      </trkpt>
      <trkpt lat="42.7518" lon="2.57933">
        <ele>232.126191</ele>
        <time>2026-05-22T19:50:18.131Z</time>
      </trkpt>
      <trkpt lat="42.75168" lon="2.5794">
        <ele>231.754757</ele>
        <time>2026-05-22T19:50:19.982Z</time>
      </trkpt>
      <trkpt lat="42.75154" lon="2.57943">
        <ele>231.341697</ele>
        <time>2026-05-22T19:50:22.146Z</time>
      </trkpt>
      <trkpt lat="42.75138" lon="2.57941">
        <ele>230.891652</ele>
        <time>2026-05-22T19:50:24.581Z</time>
      </trkpt>
      <trkpt lat="42.75123" lon="2.57931">
        <ele>230.422094</ele>
        <time>2026-05-22T19:50:27.240Z</time>
      </trkpt>
      <trkpt lat="42.75111" lon="2.57914">
        <ele>230.685595</ele>
        <time>2026-05-22T19:50:30.189Z</time>
      </trkpt>
      <trkpt lat="42.75103" lon="2.57891">
        <ele>231.836016</ele>
        <time>2026-05-22T19:50:34.555Z</time>
      </trkpt>
      <trkpt lat="42.75097" lon="2.57845">
        <ele>233.884653</ele>
        <time>2026-05-22T19:50:46.433Z</time>
      </trkpt>
      <trkpt lat="42.75093" lon="2.57732">
        <ele>238.907209</ele>
        <time>2026-05-22T19:51:34.586Z</time>
      </trkpt>
      <trkpt lat="42.75083" lon="2.57653">
        <ele>243.594677</ele>
        <time>2026-05-22T19:52:18.336Z</time>
      </trkpt>
      <trkpt lat="42.75073" lon="2.57603">
        <ele>247.625859</ele>
        <time>2026-05-22T19:52:48.443Z</time>
      </trkpt>
      <trkpt lat="42.75057" lon="2.57547">
        <ele>252.360939</ele>
        <time>2026-05-22T19:53:23.913Z</time>
      </trkpt>
      <trkpt lat="42.75026" lon="2.57463">
        <ele>259.736988</ele>
        <time>2026-05-22T19:54:12.505Z</time>
      </trkpt>
      <trkpt lat="42.75016" lon="2.5745">
        <ele>260.833612</ele>
        <time>2026-05-22T19:54:20.669Z</time>
      </trkpt>
      <trkpt lat="42.75003" lon="2.57442">
        <ele>261.779351</ele>
        <time>2026-05-22T19:54:29.377Z</time>
      </trkpt>
      <trkpt lat="42.74991" lon="2.57438">
        <ele>262.603427</ele>
        <time>2026-05-22T19:54:37.145Z</time>
      </trkpt>
      <trkpt lat="42.74977" lon="2.57443">
        <ele>263.585566</ele>
        <time>2026-05-22T19:54:47.291Z</time>
      </trkpt>
      <trkpt lat="42.74943" lon="2.57483">
        <ele>266.517013</ele>
        <time>2026-05-22T19:55:16.008Z</time>
      </trkpt>
      <trkpt lat="42.74928" lon="2.57493">
        <ele>267.633849</ele>
        <time>2026-05-22T19:55:25.308Z</time>
      </trkpt>
      <trkpt lat="42.74915" lon="2.57494">
        <ele>268.474964</ele>
        <time>2026-05-22T19:55:31.489Z</time>
      </trkpt>
      <trkpt lat="42.74901" lon="2.57491">
        <ele>269.371641</ele>
        <time>2026-05-22T19:55:37.525Z</time>
      </trkpt>
      <trkpt lat="42.74891" lon="2.57484">
        <ele>270.120717</ele>
        <time>2026-05-22T19:55:42.293Z</time>
      </trkpt>
      <trkpt lat="42.74881" lon="2.57472">
        <ele>270.986725</ele>
        <time>2026-05-22T19:55:47.320Z</time>
      </trkpt>
      <trkpt lat="42.74877" lon="2.57458">
        <ele>271.699088</ele>
        <time>2026-05-22T19:55:50.773Z</time>
      </trkpt>
      <trkpt lat="42.74873" lon="2.57441">
        <ele>271.628532</ele>
        <time>2026-05-22T19:55:54.544Z</time>
      </trkpt>
      <trkpt lat="42.74873" lon="2.57419">
        <ele>270.730766</ele>
        <time>2026-05-22T19:55:58.347Z</time>
      </trkpt>
      <trkpt lat="42.74878" lon="2.57398">
        <ele>269.777279</ele>
        <time>2026-05-22T19:56:01.852Z</time>
      </trkpt>
      <trkpt lat="42.74903" lon="2.57338">
        <ele>266.882297</ele>
        <time>2026-05-22T19:56:09.311Z</time>
      </trkpt>
      <trkpt lat="42.74914" lon="2.57292">
        <ele>264.859393</ele>
        <time>2026-05-22T19:56:13.590Z</time>
      </trkpt>
      <trkpt lat="42.74919" lon="2.57259">
        <ele>263.484691</ele>
        <time>2026-05-22T19:56:16.433Z</time>
      </trkpt>
      <trkpt lat="42.74919" lon="2.57219">
        <ele>261.792735</ele>
        <time>2026-05-22T19:56:19.830Z</time>
      </trkpt>
      <trkpt lat="42.74906" lon="2.57119">
        <ele>253.010968</ele>
        <time>2026-05-22T19:56:28.529Z</time>
      </trkpt>
      <trkpt lat="42.74887" lon="2.57015">
        <ele>243.848661</ele>
        <time>2026-05-22T19:56:37.716Z</time>
      </trkpt>
      <trkpt lat="42.74866" lon="2.56947">
        <ele>237.975883</ele>
        <time>2026-05-22T19:56:44.154Z</time>
      </trkpt>
      <trkpt lat="42.74818" lon="2.56842">
        <ele>228.827813</ele>
        <time>2026-05-22T19:56:54.964Z</time>
      </trkpt>
      <trkpt lat="42.7481" lon="2.56817">
        <ele>226.811946</ele>
        <time>2026-05-22T19:56:57.350Z</time>
      </trkpt>
      <trkpt lat="42.74805" lon="2.56795">
        <ele>225.066809</ele>
        <time>2026-05-22T19:56:59.425Z</time>
      </trkpt>
      <trkpt lat="42.74803" lon="2.56755">
        <ele>222.22422</ele>
        <time>2026-05-22T19:57:02.961Z</time>
      </trkpt>
      <trkpt lat="42.74807" lon="2.56718">
        <ele>220.032566</ele>
        <time>2026-05-22T19:57:06.288Z</time>
      </trkpt>
      <trkpt lat="42.74818" lon="2.5667">
        <ele>217.109641</ele>
        <time>2026-05-22T19:57:10.768Z</time>
      </trkpt>
      <trkpt lat="42.74842" lon="2.56551">
        <ele>209.873328</ele>
        <time>2026-05-22T19:57:22.071Z</time>
      </trkpt>
      <trkpt lat="42.74851" lon="2.56458">
        <ele>205.495606</ele>
        <time>2026-05-22T19:57:30.794Z</time>
      </trkpt>
      <trkpt lat="42.7486" lon="2.56351">
        <ele>200.971084</ele>
        <time>2026-05-22T19:57:41.138Z</time>
      </trkpt>
      <trkpt lat="42.74861" lon="2.56337">
        <ele>200.345629</ele>
        <time>2026-05-22T19:57:42.528Z</time>
      </trkpt>
      <trkpt lat="42.74858" lon="2.56288">
        <ele>198.293493</ele>
        <time>2026-05-22T19:57:47.270Z</time>
      </trkpt>
      <trkpt lat="42.74851" lon="2.5625">
        <ele>197.591342</ele>
        <time>2026-05-22T19:57:51.185Z</time>
      </trkpt>
      <trkpt lat="42.74824" lon="2.56258">
        <ele>197.093422</ele>
        <time>2026-05-22T19:57:55.064Z</time>
      </trkpt>
      <trkpt lat="42.74817" lon="2.56263">
        <ele>196.948216</ele>
        <time>2026-05-22T19:57:56.268Z</time>
      </trkpt>
      <trkpt lat="42.7481" lon="2.56276">
        <ele>196.736289</ele>
        <time>2026-05-22T19:57:58.079Z</time>
      </trkpt>
      <trkpt lat="42.7481" lon="2.56299">
        <ele>196.422152</ele>
        <time>2026-05-22T19:58:00.818Z</time>
      </trkpt>
      <trkpt lat="42.74827" lon="2.56368">
        <ele>195.447887</ele>
        <time>2026-05-22T19:58:09.393Z</time>
      </trkpt>
      <trkpt lat="42.74832" lon="2.56416">
        <ele>194.786503</ele>
        <time>2026-05-22T19:58:17.130Z</time>
      </trkpt>
      <trkpt lat="42.74832" lon="2.56451">
        <ele>194.566084</ele>
        <time>2026-05-22T19:58:23.887Z</time>
      </trkpt>
      <trkpt lat="42.74817" lon="2.56515">
        <ele>194.206972</ele>
        <time>2026-05-22T19:58:35.176Z</time>
      </trkpt>
      <trkpt lat="42.74803" lon="2.56551">
        <ele>193.990679</ele>
        <time>2026-05-22T19:58:40.608Z</time>
      </trkpt>
      <trkpt lat="42.74796" lon="2.56561">
        <ele>193.918408</ele>
        <time>2026-05-22T19:58:42.257Z</time>
      </trkpt>
      <trkpt lat="42.74719" lon="2.56676">
        <ele>192.618557</ele>
        <time>2026-05-22T19:58:59.717Z</time>
      </trkpt>
      <trkpt lat="42.74708" lon="2.56698">
        <ele>192.288198</ele>
        <time>2026-05-22T19:59:02.724Z</time>
      </trkpt>
      <trkpt lat="42.74702" lon="2.56723">
        <ele>191.946661</ele>
        <time>2026-05-22T19:59:05.968Z</time>
      </trkpt>
      <trkpt lat="42.74697" lon="2.5678">
        <ele>191.219223</ele>
        <time>2026-05-22T19:59:13.160Z</time>
      </trkpt>
      <trkpt lat="42.74693" lon="2.56802">
        <ele>190.930929</ele>
        <time>2026-05-22T19:59:15.938Z</time>
      </trkpt>
      <trkpt lat="42.74679" lon="2.56826">
        <ele>190.552248</ele>
        <time>2026-05-22T19:59:19.491Z</time>
      </trkpt>
      <trkpt lat="42.74661" lon="2.56842">
        <ele>189.935463</ele>
        <time>2026-05-22T19:59:22.934Z</time>
      </trkpt>
      <trkpt lat="42.74646" lon="2.56849">
        <ele>189.213373</ele>
        <time>2026-05-22T19:59:25.295Z</time>
      </trkpt>
      <trkpt lat="42.74627" lon="2.56851">
        <ele>188.350187</ele>
        <time>2026-05-22T19:59:28.053Z</time>
      </trkpt>
      <trkpt lat="42.74576" lon="2.56848">
        <ele>185.977035</ele>
        <time>2026-05-22T19:59:35.169Z</time>
      </trkpt>
      <trkpt lat="42.74555" lon="2.56852">
        <ele>184.98374</ele>
        <time>2026-05-22T19:59:37.975Z</time>
      </trkpt>
      <trkpt lat="42.74554" lon="2.56852">
        <ele>184.964943</ele>
        <time>2026-05-22T19:59:38.032Z</time>
      </trkpt>
      <trkpt lat="42.74528" lon="2.5687">
        <ele>183.596256</ele>
        <time>2026-05-22T19:59:41.782Z</time>
      </trkpt>
      <trkpt lat="42.74453" lon="2.56946">
        <ele>179.208767</ele>
        <time>2026-05-22T19:59:53.656Z</time>
      </trkpt>
      <trkpt lat="42.74433" lon="2.56975">
        <ele>177.812176</ele>
        <time>2026-05-22T19:59:57.622Z</time>
      </trkpt>
      <trkpt lat="42.74356" lon="2.57131">
        <ele>172.606467</ele>
        <time>2026-05-22T20:00:17.202Z</time>
      </trkpt>
      <trkpt lat="42.7435" lon="2.57139">
        <ele>172.455562</ele>
        <time>2026-05-22T20:00:18.451Z</time>
      </trkpt>
      <trkpt lat="42.74334" lon="2.57143">
        <ele>172.138231</ele>
        <time>2026-05-22T20:00:20.990Z</time>
      </trkpt>
      <trkpt lat="42.74314" lon="2.57141">
        <ele>171.772461</ele>
        <time>2026-05-22T20:00:23.959Z</time>
      </trkpt>
      <trkpt lat="42.74301" lon="2.57138">
        <ele>171.516248</ele>
        <time>2026-05-22T20:00:26.054Z</time>
      </trkpt>
      <trkpt lat="42.74133" lon="2.57101">
        <ele>170.257827</ele>
        <time>2026-05-22T20:00:56.372Z</time>
      </trkpt>
      <trkpt lat="42.74117" lon="2.57099">
        <ele>170.283022</ele>
        <time>2026-05-22T20:00:59.728Z</time>
      </trkpt>
      <trkpt lat="42.74104" lon="2.57105">
        <ele>170.304201</ele>
        <time>2026-05-22T20:01:02.540Z</time>
      </trkpt>
      <trkpt lat="42.74086" lon="2.57125">
        <ele>170.340336</ele>
        <time>2026-05-22T20:01:07.546Z</time>
      </trkpt>
      <trkpt lat="42.74071" lon="2.5717">
        <ele>170.524197</ele>
        <time>2026-05-22T20:01:17.003Z</time>
      </trkpt>
      <trkpt lat="42.74067" lon="2.57175">
        <ele>170.70339</ele>
        <time>2026-05-22T20:01:18.680Z</time>
      </trkpt>
      <trkpt lat="42.74035" lon="2.57189">
        <ele>171.770874</ele>
        <time>2026-05-22T20:01:28.957Z</time>
      </trkpt>
      <trkpt lat="42.74016" lon="2.57219">
        <ele>172.708166</ele>
        <time>2026-05-22T20:01:38.209Z</time>
      </trkpt>
      <trkpt lat="42.74004" lon="2.57225">
        <ele>173.119965</ele>
        <time>2026-05-22T20:01:42.340Z</time>
      </trkpt>
      <trkpt lat="42.73999" lon="2.57202">
        <ele>173.683052</ele>
        <time>2026-05-22T20:01:50.287Z</time>
      </trkpt>
      <trkpt lat="42.73991" lon="2.57185">
        <ele>174.152939</ele>
        <time>2026-05-22T20:01:57.346Z</time>
      </trkpt>
      <trkpt lat="42.73982" lon="2.57171">
        <ele>174.598504</ele>
        <time>2026-05-22T20:02:04.336Z</time>
      </trkpt>
      <trkpt lat="42.73972" lon="2.57161">
        <ele>175.010998</ele>
        <time>2026-05-22T20:02:11.218Z</time>
      </trkpt>
      <trkpt lat="42.73957" lon="2.57141">
        <ele>175.688832</ele>
        <time>2026-05-22T20:02:23.072Z</time>
      </trkpt>
      <trkpt lat="42.73954" lon="2.57114">
        <ele>176.47924</ele>
        <time>2026-05-22T20:02:34.893Z</time>
      </trkpt>
      <trkpt lat="42.73924" lon="2.57051">
        <ele>180.738395</ele>
        <time>2026-05-22T20:03:03.460Z</time>
      </trkpt>
      <trkpt lat="42.73901" lon="2.56995">
        <ele>184.385585</ele>
        <time>2026-05-22T20:03:30.383Z</time>
      </trkpt>
      <trkpt lat="42.73896" lon="2.56997">
        <ele>184.796127</ele>
        <time>2026-05-22T20:03:33.685Z</time>
      </trkpt>
      <trkpt lat="42.73892" lon="2.56992">
        <ele>185.189757</ele>
        <time>2026-05-22T20:03:36.896Z</time>
      </trkpt>
      <trkpt lat="42.73831" lon="2.56927">
        <ele>191.337566</ele>
        <time>2026-05-22T20:04:28.981Z</time>
      </trkpt>
      <trkpt lat="42.73814" lon="2.56911">
        <ele>193.220774</ele>
        <time>2026-05-22T20:04:43.041Z</time>
      </trkpt>
      <trkpt lat="42.73789" lon="2.56897">
        <ele>195.682</ele>
        <time>2026-05-22T20:05:01.530Z</time>
      </trkpt>
      <trkpt lat="42.73782" lon="2.56888">
        <ele>196.576756</ele>
        <time>2026-05-22T20:05:08.102Z</time>
      </trkpt>
      <trkpt lat="42.7377" lon="2.56864">
        <ele>198.512329</ele>
        <time>2026-05-22T20:05:22.357Z</time>
      </trkpt>
      <trkpt lat="42.73759" lon="2.56851">
        <ele>199.871033</ele>
        <time>2026-05-22T20:05:32.237Z</time>
      </trkpt>
      <trkpt lat="42.73736" lon="2.56857">
        <ele>202.067755</ele>
        <time>2026-05-22T20:05:47.788Z</time>
      </trkpt>
      <trkpt lat="42.73719" lon="2.56858">
        <ele>203.583673</ele>
        <time>2026-05-22T20:05:58.390Z</time>
      </trkpt>
      <trkpt lat="42.73686" lon="2.56839">
        <ele>206.867576</ele>
        <time>2026-05-22T20:06:20.342Z</time>
      </trkpt>
      <trkpt lat="42.73658" lon="2.56834">
        <ele>209.412245</ele>
        <time>2026-05-22T20:06:37.819Z</time>
      </trkpt>
      <trkpt lat="42.73621" lon="2.56839">
        <ele>212.744087</ele>
        <time>2026-05-22T20:07:01.761Z</time>
      </trkpt>
      <trkpt lat="42.73593" lon="2.56837">
        <ele>215.287108</ele>
        <time>2026-05-22T20:07:21.711Z</time>
      </trkpt>
      <trkpt lat="42.73579" lon="2.56832">
        <ele>216.532958</ele>
        <time>2026-05-22T20:07:31.257Z</time>
      </trkpt>
      <trkpt lat="42.73533" lon="2.56794">
        <ele>221.385086</ele>
        <time>2026-05-22T20:08:07.270Z</time>
      </trkpt>
      <trkpt lat="42.73524" lon="2.56793">
        <ele>222.231528</ele>
        <time>2026-05-22T20:08:13.313Z</time>
      </trkpt>
      <trkpt lat="42.73518" lon="2.56795">
        <ele>222.737538</ele>
        <time>2026-05-22T20:08:16.940Z</time>
      </trkpt>
      <trkpt lat="42.73514" lon="2.56801">
        <ele>222.963549</ele>
        <time>2026-05-22T20:08:21.294Z</time>
      </trkpt>
      <trkpt lat="42.73513" lon="2.56815">
        <ele>223.288358</ele>
        <time>2026-05-22T20:08:27.338Z</time>
      </trkpt>
      <trkpt lat="42.73526" lon="2.56848">
        <ele>224.218069</ele>
        <time>2026-05-22T20:08:43.224Z</time>
      </trkpt>
      <trkpt lat="42.73553" lon="2.56937">
        <ele>226.573476</ele>
        <time>2026-05-22T20:09:10.844Z</time>
      </trkpt>
      <trkpt lat="42.73563" lon="2.56948">
        <ele>226.99322</ele>
        <time>2026-05-22T20:09:13.110Z</time>
      </trkpt>
      <trkpt lat="42.73571" lon="2.56954">
        <ele>227.31835</ele>
        <time>2026-05-22T20:09:14.648Z</time>
      </trkpt>
      <trkpt lat="42.73581" lon="2.56956">
        <ele>227.660727</ele>
        <time>2026-05-22T20:09:16.325Z</time>
      </trkpt>
      <trkpt lat="42.73605" lon="2.56945">
        <ele>228.521053</ele>
        <time>2026-05-22T20:09:20.525Z</time>
      </trkpt>
      <trkpt lat="42.73619" lon="2.56942">
        <ele>229.014408</ele>
        <time>2026-05-22T20:09:22.904Z</time>
      </trkpt>
      <trkpt lat="42.73648" lon="2.56949">
        <ele>230.123545</ele>
        <time>2026-05-22T20:09:27.649Z</time>
      </trkpt>
      <trkpt lat="42.73657" lon="2.56955">
        <ele>230.511885</ele>
        <time>2026-05-22T20:09:29.240Z</time>
      </trkpt>
      <trkpt lat="42.73669" lon="2.56972">
        <ele>231.159656</ele>
        <time>2026-05-22T20:09:31.931Z</time>
      </trkpt>
      <trkpt lat="42.73676" lon="2.57001">
        <ele>232.022144</ele>
        <time>2026-05-22T20:09:36.638Z</time>
      </trkpt>
      <trkpt lat="42.73674" lon="2.57016">
        <ele>232.429927</ele>
        <time>2026-05-22T20:09:39.898Z</time>
      </trkpt>
      <trkpt lat="42.73669" lon="2.57021">
        <ele>232.686853</ele>
        <time>2026-05-22T20:09:42.775Z</time>
      </trkpt>
      <trkpt lat="42.73663" lon="2.57023">
        <ele>232.918816</ele>
        <time>2026-05-22T20:09:45.068Z</time>
      </trkpt>
      <trkpt lat="42.73659" lon="2.57021">
        <ele>233.07021</ele>
        <time>2026-05-22T20:09:46.903Z</time>
      </trkpt>
      <trkpt lat="42.73655" lon="2.57014">
        <ele>233.299111</ele>
        <time>2026-05-22T20:09:50.075Z</time>
      </trkpt>
      <trkpt lat="42.73659" lon="2.56989">
        <ele>234.014124</ele>
        <time>2026-05-22T20:10:00.382Z</time>
      </trkpt>
      <trkpt lat="42.7366" lon="2.56982">
        <ele>234.211065</ele>
        <time>2026-05-22T20:10:03.473Z</time>
      </trkpt>
      <trkpt lat="42.73658" lon="2.56976">
        <ele>234.405548</ele>
        <time>2026-05-22T20:10:07.003Z</time>
      </trkpt>
      <trkpt lat="42.73651" lon="2.5697">
        <ele>234.705925</ele>
        <time>2026-05-22T20:10:11.975Z</time>
      </trkpt>
      <trkpt lat="42.73636" lon="2.56967">
        <ele>235.281336</ele>
        <time>2026-05-22T20:10:23.031Z</time>
      </trkpt>
      <trkpt lat="42.7361" lon="2.56977">
        <ele>237.71016</ele>
        <time>2026-05-22T20:10:44.127Z</time>
      </trkpt>
      <trkpt lat="42.736" lon="2.56985">
        <ele>238.97407</ele>
        <time>2026-05-22T20:10:53.603Z</time>
      </trkpt>
      <trkpt lat="42.73575" lon="2.57005">
        <ele>242.257934</ele>
        <time>2026-05-22T20:11:18.520Z</time>
      </trkpt>
      <trkpt lat="42.73568" lon="2.5701">
        <ele>243.094187</ele>
        <time>2026-05-22T20:11:24.645Z</time>
      </trkpt>
      <trkpt lat="42.73549" lon="2.57024">
        <ele>245.529167</ele>
        <time>2026-05-22T20:11:44.280Z</time>
      </trkpt>
      <trkpt lat="42.73537" lon="2.57039">
        <ele>247.364045</ele>
        <time>2026-05-22T20:11:58.952Z</time>
      </trkpt>
      <trkpt lat="42.73526" lon="2.57052">
        <ele>248.974495</ele>
        <time>2026-05-22T20:12:11.082Z</time>
      </trkpt>
      <trkpt lat="42.7352" lon="2.57056">
        <ele>249.746603</ele>
        <time>2026-05-22T20:12:16.352Z</time>
      </trkpt>
      <trkpt lat="42.7349" lon="2.57077">
        <ele>253.487285</ele>
        <time>2026-05-22T20:12:40.104Z</time>
      </trkpt>
      <trkpt lat="42.73487" lon="2.57084">
        <ele>254.078662</ele>
        <time>2026-05-22T20:12:43.494Z</time>
      </trkpt>
      <trkpt lat="42.7346" lon="2.57163">
        <ele>258.9419</ele>
        <time>2026-05-22T20:13:19.175Z</time>
      </trkpt>
      <trkpt lat="42.73436" lon="2.57217">
        <ele>262.060011</ele>
        <time>2026-05-22T20:13:43.174Z</time>
      </trkpt>
      <trkpt lat="42.73418" lon="2.57303">
        <ele>266.408726</ele>
        <time>2026-05-22T20:14:14.827Z</time>
      </trkpt>
      <trkpt lat="42.73392" lon="2.57367">
        <ele>269.565219</ele>
        <time>2026-05-22T20:14:40.467Z</time>
      </trkpt>
      <trkpt lat="42.73364" lon="2.57414">
        <ele>271.991571</ele>
        <time>2026-05-22T20:15:00.910Z</time>
      </trkpt>
      <trkpt lat="42.73322" lon="2.57468">
        <ele>275.147473</ele>
        <time>2026-05-22T20:15:27.063Z</time>
      </trkpt>
      <trkpt lat="42.73243" lon="2.57546">
        <ele>279.194863</ele>
        <time>2026-05-22T20:16:13.210Z</time>
      </trkpt>
      <trkpt lat="42.7318" lon="2.57588">
        <ele>281.438553</ele>
        <time>2026-05-22T20:16:41.234Z</time>
      </trkpt>
      <trkpt lat="42.73174" lon="2.57609">
        <ele>281.955013</ele>
        <time>2026-05-22T20:16:45.432Z</time>
      </trkpt>
      <trkpt lat="42.73177" lon="2.57632">
        <ele>282.506344</ele>
        <time>2026-05-22T20:16:49.223Z</time>
      </trkpt>
      <trkpt lat="42.73185" lon="2.57639">
        <ele>282.803976</ele>
        <time>2026-05-22T20:16:50.967Z</time>
      </trkpt>
      <trkpt lat="42.73195" lon="2.57643">
        <ele>283.123214</ele>
        <time>2026-05-22T20:16:52.664Z</time>
      </trkpt>
      <trkpt lat="42.73224" lon="2.57639">
        <ele>283.218719</ele>
        <time>2026-05-22T20:16:57.401Z</time>
      </trkpt>
      <trkpt lat="42.73252" lon="2.57653">
        <ele>283.315017</ele>
        <time>2026-05-22T20:17:02.074Z</time>
      </trkpt>
      <trkpt lat="42.73258" lon="2.57653">
        <ele>283.334114</ele>
        <time>2026-05-22T20:17:02.996Z</time>
      </trkpt>
      <trkpt lat="42.7329" lon="2.57631">
        <ele>283.450478</ele>
        <time>2026-05-22T20:17:08.374Z</time>
      </trkpt>
      <trkpt lat="42.73306" lon="2.57628">
        <ele>283.503446</ele>
        <time>2026-05-22T20:17:10.939Z</time>
      </trkpt>
      <trkpt lat="42.73333" lon="2.5763">
        <ele>283.589947</ele>
        <time>2026-05-22T20:17:16.650Z</time>
      </trkpt>
      <trkpt lat="42.73379" lon="2.57616">
        <ele>284.424278</ele>
        <time>2026-05-22T20:17:35.312Z</time>
      </trkpt>
      <trkpt lat="42.73393" lon="2.57617">
        <ele>285.32531</ele>
        <time>2026-05-22T20:17:42.297Z</time>
      </trkpt>
      <trkpt lat="42.73403" lon="2.57625">
        <ele>286.021359</ele>
        <time>2026-05-22T20:17:47.775Z</time>
      </trkpt>
      <trkpt lat="42.7341" lon="2.57637">
        <ele>286.756207</ele>
        <time>2026-05-22T20:17:53.749Z</time>
      </trkpt>
      <trkpt lat="42.73416" lon="2.57659">
        <ele>287.815426</ele>
        <time>2026-05-22T20:18:02.917Z</time>
      </trkpt>
      <trkpt lat="42.73424" lon="2.57728">
        <ele>291.044055</ele>
        <time>2026-05-22T20:18:32.114Z</time>
      </trkpt>
      <trkpt lat="42.73443" lon="2.57777">
        <ele>293.608603</ele>
        <time>2026-05-22T20:18:56.032Z</time>
      </trkpt>
      <trkpt lat="42.73448" lon="2.57798">
        <ele>294.609886</ele>
        <time>2026-05-22T20:19:04.860Z</time>
      </trkpt>
      <trkpt lat="42.73447" lon="2.57814">
        <ele>295.277285</ele>
        <time>2026-05-22T20:19:11.334Z</time>
      </trkpt>
      <trkpt lat="42.73443" lon="2.57832">
        <ele>295.898025</ele>
        <time>2026-05-22T20:19:18.331Z</time>
      </trkpt>
      <trkpt lat="42.73433" lon="2.5785">
        <ele>296.620842</ele>
        <time>2026-05-22T20:19:25.806Z</time>
      </trkpt>
      <trkpt lat="42.73407" lon="2.5787">
        <ele>297.970325</ele>
        <time>2026-05-22T20:19:37.705Z</time>
      </trkpt>
      <trkpt lat="42.73381" lon="2.57886">
        <ele>299.241987</ele>
        <time>2026-05-22T20:19:48.847Z</time>
      </trkpt>
      <trkpt lat="42.73358" lon="2.57896">
        <ele>300.333317</ele>
        <time>2026-05-22T20:19:58.570Z</time>
      </trkpt>
      <trkpt lat="42.73347" lon="2.57907">
        <ele>300.94356</ele>
        <time>2026-05-22T20:20:03.863Z</time>
      </trkpt>
      <trkpt lat="42.73322" lon="2.57943">
        <ele>302.574072</ele>
        <time>2026-05-22T20:20:17.214Z</time>
      </trkpt>
      <trkpt lat="42.73314" lon="2.57951">
        <ele>303.030547</ele>
        <time>2026-05-22T20:20:20.739Z</time>
      </trkpt>
      <trkpt lat="42.73297" lon="2.57955">
        <ele>303.817446</ele>
        <time>2026-05-22T20:20:26.578Z</time>
      </trkpt>
      <trkpt lat="42.73292" lon="2.57957">
        <ele>304.030544</ele>
        <time>2026-05-22T20:20:28.114Z</time>
      </trkpt>
      <trkpt lat="42.73281" lon="2.57954">
        <ele>304.539948</ele>
        <time>2026-05-22T20:20:31.778Z</time>
      </trkpt>
      <trkpt lat="42.73192" lon="2.57917">
        <ele>308.793172</ele>
        <time>2026-05-22T20:21:06.318Z</time>
      </trkpt>
      <trkpt lat="42.73176" lon="2.57905">
        <ele>309.634881</ele>
        <time>2026-05-22T20:21:15.399Z</time>
      </trkpt>
      <trkpt lat="42.73146" lon="2.57872">
        <ele>311.403074</ele>
        <time>2026-05-22T20:21:36.018Z</time>
      </trkpt>
      <trkpt lat="42.73082" lon="2.57823">
        <ele>315.947776</ele>
        <time>2026-05-22T20:22:17.622Z</time>
      </trkpt>
      <trkpt lat="42.7306" lon="2.57813">
        <ele>317.391714</ele>
        <time>2026-05-22T20:22:30.095Z</time>
      </trkpt>
      <trkpt lat="42.73051" lon="2.57814">
        <ele>317.919364</ele>
        <time>2026-05-22T20:22:34.337Z</time>
      </trkpt>
      <trkpt lat="42.73041" lon="2.57823">
        <ele>318.668444</ele>
        <time>2026-05-22T20:22:40.256Z</time>
      </trkpt>
      <trkpt lat="42.73034" lon="2.57845">
        <ele>319.754592</ele>
        <time>2026-05-22T20:22:48.034Z</time>
      </trkpt>
      <trkpt lat="42.73028" lon="2.57891">
        <ele>321.845</ele>
        <time>2026-05-22T20:23:02.817Z</time>
      </trkpt>
      <trkpt lat="42.73027" lon="2.57915">
        <ele>322.997359</ele>
        <time>2026-05-22T20:23:10.678Z</time>
      </trkpt>
      <trkpt lat="42.73033" lon="2.57976">
        <ele>325.958969</ele>
        <time>2026-05-22T20:23:29.765Z</time>
      </trkpt>
      <trkpt lat="42.7303" lon="2.5799">
        <ele>326.699963</ele>
        <time>2026-05-22T20:23:34.742Z</time>
      </trkpt>
      <trkpt lat="42.73023" lon="2.58">
        <ele>327.326968</ele>
        <time>2026-05-22T20:23:39.097Z</time>
      </trkpt>
      <trkpt lat="42.73021" lon="2.58">
        <ele>327.506083</ele>
        <time>2026-05-22T20:23:40.372Z</time>
      </trkpt>
      <trkpt lat="42.73004" lon="2.58">
        <ele>328.636886</ele>
        <time>2026-05-22T20:23:48.862Z</time>
      </trkpt>
      <trkpt lat="42.72991" lon="2.57995">
        <ele>329.516034</ele>
        <time>2026-05-22T20:23:55.808Z</time>
      </trkpt>
      <trkpt lat="42.72975" lon="2.57997">
        <ele>330.552055</ele>
        <time>2026-05-22T20:24:04.626Z</time>
      </trkpt>
      <trkpt lat="42.7294" lon="2.58007">
        <ele>332.904507</ele>
        <time>2026-05-22T20:24:26.768Z</time>
      </trkpt>
      <trkpt lat="42.72871" lon="2.57996">
        <ele>336.896778</ele>
        <time>2026-05-22T20:25:12.587Z</time>
      </trkpt>
      <trkpt lat="42.72855" lon="2.58">
        <ele>337.767686</ele>
        <time>2026-05-22T20:25:22.013Z</time>
      </trkpt>
      <trkpt lat="42.72849" lon="2.5801">
        <ele>338.270134</ele>
        <time>2026-05-22T20:25:27.163Z</time>
      </trkpt>
      <trkpt lat="42.72845" lon="2.5803">
        <ele>339.094969</ele>
        <time>2026-05-22T20:25:35.100Z</time>
      </trkpt>
      <trkpt lat="42.72847" lon="2.58063">
        <ele>340.365381</ele>
        <time>2026-05-22T20:25:45.927Z</time>
      </trkpt>
      <trkpt lat="42.72858" lon="2.58121">
        <ele>342.729448</ele>
        <time>2026-05-22T20:26:01.414Z</time>
      </trkpt>
      <trkpt lat="42.72861" lon="2.58147">
        <ele>343.763599</ele>
        <time>2026-05-22T20:26:06.000Z</time>
      </trkpt>
      <trkpt lat="42.72864" lon="2.58166">
        <ele>343.737109</ele>
        <time>2026-05-22T20:26:08.767Z</time>
      </trkpt>
      <trkpt lat="42.72871" lon="2.58179">
        <ele>343.633289</ele>
        <time>2026-05-22T20:26:10.808Z</time>
      </trkpt>
      <trkpt lat="42.72891" lon="2.58204">
        <ele>343.384087</ele>
        <time>2026-05-22T20:26:15.539Z</time>
      </trkpt>
      <trkpt lat="42.72885" lon="2.58207">
        <ele>343.321458</ele>
        <time>2026-05-22T20:26:16.887Z</time>
      </trkpt>
      <trkpt lat="42.72891" lon="2.58204">
        <ele>343.25883</ele>
        <time>2026-05-22T20:26:18.044Z</time>
      </trkpt>
      <trkpt lat="42.72904" lon="2.58221">
        <ele>343.089885</ele>
        <time>2026-05-22T20:26:21.148Z</time>
      </trkpt>
      <trkpt lat="42.72913" lon="2.58243">
        <ele>342.926604</ele>
        <time>2026-05-22T20:26:24.073Z</time>
      </trkpt>
      <trkpt lat="42.72915" lon="2.5826">
        <ele>342.807403</ele>
        <time>2026-05-22T20:26:26.117Z</time>
      </trkpt>
      <trkpt lat="42.72914" lon="2.58274">
        <ele>342.715431</ele>
        <time>2026-05-22T20:26:27.689Z</time>
      </trkpt>
      <trkpt lat="42.72909" lon="2.58292">
        <ele>342.585406</ele>
        <time>2026-05-22T20:26:29.891Z</time>
      </trkpt>
      <trkpt lat="42.72871" lon="2.58318">
        <ele>342.210191</ele>
        <time>2026-05-22T20:26:36.339Z</time>
      </trkpt>
      <trkpt lat="42.72859" lon="2.58333">
        <ele>342.216708</ele>
        <time>2026-05-22T20:26:38.868Z</time>
      </trkpt>
      <trkpt lat="42.7284" lon="2.58374">
        <ele>342.231058</ele>
        <time>2026-05-22T20:26:44.773Z</time>
      </trkpt>
      <trkpt lat="42.72827" lon="2.58391">
        <ele>342.237967</ele>
        <time>2026-05-22T20:26:47.808Z</time>
      </trkpt>
      <trkpt lat="42.72804" lon="2.58403">
        <ele>342.247923</ele>
        <time>2026-05-22T20:26:52.301Z</time>
      </trkpt>
      <trkpt lat="42.7279" lon="2.58403">
        <ele>342.253497</ele>
        <time>2026-05-22T20:26:54.935Z</time>
      </trkpt>
      <trkpt lat="42.72763" lon="2.58392">
        <ele>342.265006</ele>
        <time>2026-05-22T20:27:01.192Z</time>
      </trkpt>
      <trkpt lat="42.72723" lon="2.58383">
        <ele>342.280976</ele>
        <time>2026-05-22T20:27:12.493Z</time>
      </trkpt>
      <trkpt lat="42.72721" lon="2.58382">
        <ele>342.321668</ele>
        <time>2026-05-22T20:27:13.057Z</time>
      </trkpt>
      <trkpt lat="42.7271" lon="2.58376">
        <ele>342.917971</ele>
        <time>2026-05-22T20:27:17.157Z</time>
      </trkpt>
      <trkpt lat="42.72692" lon="2.58358">
        <ele>343.965646</ele>
        <time>2026-05-22T20:27:24.779Z</time>
      </trkpt>
      <trkpt lat="42.72684" lon="2.58339">
        <ele>344.708202</ele>
        <time>2026-05-22T20:27:30.497Z</time>
      </trkpt>
      <trkpt lat="42.72674" lon="2.58283">
        <ele>346.746699</ele>
        <time>2026-05-22T20:27:47.398Z</time>
      </trkpt>
      <trkpt lat="42.72666" lon="2.58269">
        <ele>347.36232</ele>
        <time>2026-05-22T20:27:53.175Z</time>
      </trkpt>
      <trkpt lat="42.72653" lon="2.58259">
        <ele>348.071893</ele>
        <time>2026-05-22T20:28:00.369Z</time>
      </trkpt>
      <trkpt lat="42.72611" lon="2.58248">
        <ele>350.121149</ele>
        <time>2026-05-22T20:28:23.820Z</time>
      </trkpt>
      <trkpt lat="42.72589" lon="2.58229">
        <ele>351.448402</ele>
        <time>2026-05-22T20:28:38.465Z</time>
      </trkpt>
      <trkpt lat="42.72575" lon="2.5822">
        <ele>352.222063</ele>
        <time>2026-05-22T20:28:46.268Z</time>
      </trkpt>
      <trkpt lat="42.7257" lon="2.5822">
        <ele>352.517415</ele>
        <time>2026-05-22T20:28:49.219Z</time>
      </trkpt>
      <trkpt lat="42.72556" lon="2.58225">
        <ele>353.275503</ele>
        <time>2026-05-22T20:28:56.739Z</time>
      </trkpt>
      <trkpt lat="42.72547" lon="2.58239">
        <ele>354.018274</ele>
        <time>2026-05-22T20:29:03.860Z</time>
      </trkpt>
      <trkpt lat="42.72541" lon="2.58257">
        <ele>354.813986</ele>
        <time>2026-05-22T20:29:11.234Z</time>
      </trkpt>
      <trkpt lat="42.7254" lon="2.58284">
        <ele>355.849448</ele>
        <time>2026-05-22T20:29:20.609Z</time>
      </trkpt>
      <trkpt lat="42.72544" lon="2.58307">
        <ele>356.81683</ele>
        <time>2026-05-22T20:29:29.170Z</time>
      </trkpt>
      <trkpt lat="42.72568" lon="2.58358">
        <ele>359.198436</ele>
        <time>2026-05-22T20:29:48.908Z</time>
      </trkpt>
      <trkpt lat="42.72568" lon="2.58374">
        <ele>359.805672</ele>
        <time>2026-05-22T20:29:53.216Z</time>
      </trkpt>
      <trkpt lat="42.72562" lon="2.5839">
        <ele>360.515301</ele>
        <time>2026-05-22T20:29:57.846Z</time>
      </trkpt>
      <trkpt lat="42.72539" lon="2.58423">
        <ele>361.426832</ele>
        <time>2026-05-22T20:30:07.689Z</time>
      </trkpt>
      <trkpt lat="42.72514" lon="2.58469">
        <ele>362.574331</ele>
        <time>2026-05-22T20:30:19.615Z</time>
      </trkpt>
      <trkpt lat="42.72463" lon="2.58596">
        <ele>365.517621</ele>
        <time>2026-05-22T20:30:54.169Z</time>
      </trkpt>
      <trkpt lat="42.72452" lon="2.58632">
        <ele>366.483062</ele>
        <time>2026-05-22T20:31:04.732Z</time>
      </trkpt>
      <trkpt lat="42.72445" lon="2.58664">
        <ele>367.309507</ele>
        <time>2026-05-22T20:31:13.862Z</time>
      </trkpt>
      <trkpt lat="42.7244" lon="2.58717">
        <ele>368.626731</ele>
        <time>2026-05-22T20:31:28.114Z</time>
      </trkpt>
      <trkpt lat="42.72434" lon="2.58745">
        <ele>369.341092</ele>
        <time>2026-05-22T20:31:35.675Z</time>
      </trkpt>
      <trkpt lat="42.72426" lon="2.58765">
        <ele>369.910844</ele>
        <time>2026-05-22T20:31:41.618Z</time>
      </trkpt>
      <trkpt lat="42.72403" lon="2.58799">
        <ele>371.043943</ele>
        <time>2026-05-22T20:31:53.350Z</time>
      </trkpt>
      <trkpt lat="42.72396" lon="2.58824">
        <ele>371.829178</ele>
        <time>2026-05-22T20:32:00.302Z</time>
      </trkpt>
      <trkpt lat="42.72394" lon="2.58886">
        <ele>374.265951</ele>
        <time>2026-05-22T20:32:17.756Z</time>
      </trkpt>
      <trkpt lat="42.72389" lon="2.58908">
        <ele>375.173213</ele>
        <time>2026-05-22T20:32:24.965Z</time>
      </trkpt>
      <trkpt lat="42.72382" lon="2.58918">
        <ele>375.724463</ele>
        <time>2026-05-22T20:32:29.484Z</time>
      </trkpt>
      <trkpt lat="42.72344" lon="2.58947">
        <ele>378.056577</ele>
        <time>2026-05-22T20:32:51.051Z</time>
      </trkpt>
      <trkpt lat="42.72296" lon="2.59">
        <ele>381.405215</ele>
        <time>2026-05-22T20:33:23.559Z</time>
      </trkpt>
      <trkpt lat="42.72264" lon="2.59051">
        <ele>384.113906</ele>
        <time>2026-05-22T20:33:51.020Z</time>
      </trkpt>
      <trkpt lat="42.72252" lon="2.59077">
        <ele>385.349319</ele>
        <time>2026-05-22T20:34:03.285Z</time>
      </trkpt>
      <trkpt lat="42.72249" lon="2.59095">
        <ele>386.093293</ele>
        <time>2026-05-22T20:34:10.325Z</time>
      </trkpt>
      <trkpt lat="42.72253" lon="2.5912">
        <ele>387.096475</ele>
        <time>2026-05-22T20:34:19.498Z</time>
      </trkpt>
      <trkpt lat="42.7227" lon="2.59181">
        <ele>389.748526</ele>
        <time>2026-05-22T20:34:40.115Z</time>
      </trkpt>
      <trkpt lat="42.72278" lon="2.59246">
        <ele>391.498193</ele>
        <time>2026-05-22T20:34:55.950Z</time>
      </trkpt>
      <trkpt lat="42.72279" lon="2.59258">
        <ele>391.668946</ele>
        <time>2026-05-22T20:34:58.825Z</time>
      </trkpt>
      <trkpt lat="42.72272" lon="2.59328">
        <ele>392.637527</ele>
        <time>2026-05-22T20:35:12.184Z</time>
      </trkpt>
      <trkpt lat="42.7226" lon="2.59391">
        <ele>393.538823</ele>
        <time>2026-05-22T20:35:23.850Z</time>
      </trkpt>
      <trkpt lat="42.72253" lon="2.59409">
        <ele>393.812181</ele>
        <time>2026-05-22T20:35:27.593Z</time>
      </trkpt>
      <trkpt lat="42.72243" lon="2.59424">
        <ele>394.092333</ele>
        <time>2026-05-22T20:35:31.643Z</time>
      </trkpt>
      <trkpt lat="42.72212" lon="2.59459">
        <ele>395.014268</ele>
        <time>2026-05-22T20:35:43.522Z</time>
      </trkpt>
      <trkpt lat="42.72172" lon="2.59567">
        <ele>397.331078</ele>
        <time>2026-05-22T20:36:11.353Z</time>
      </trkpt>
      <trkpt lat="42.72171" lon="2.59593">
        <ele>397.81269</ele>
        <time>2026-05-22T20:36:17.588Z</time>
      </trkpt>
      <trkpt lat="42.72177" lon="2.59614">
        <ele>398.258205</ele>
        <time>2026-05-22T20:36:23.770Z</time>
      </trkpt>
      <trkpt lat="42.72198" lon="2.59648">
        <ele>399.091548</ele>
        <time>2026-05-22T20:36:35.910Z</time>
      </trkpt>
      <trkpt lat="42.72206" lon="2.59666">
        <ele>399.417313</ele>
        <time>2026-05-22T20:36:41.737Z</time>
      </trkpt>
      <trkpt lat="42.72208" lon="2.59681">
        <ele>399.635731</ele>
        <time>2026-05-22T20:36:45.538Z</time>
      </trkpt>
      <trkpt lat="42.72194" lon="2.59703">
        <ele>400.083475</ele>
        <time>2026-05-22T20:36:52.932Z</time>
      </trkpt>
      <trkpt lat="42.72176" lon="2.59723">
        <ele>400.560038</ele>
        <time>2026-05-22T20:37:00.277Z</time>
      </trkpt>
      <trkpt lat="42.72154" lon="2.59752">
        <ele>401.176267</ele>
        <time>2026-05-22T20:37:09.621Z</time>
      </trkpt>
      <trkpt lat="42.72146" lon="2.59776">
        <ele>401.575993</ele>
        <time>2026-05-22T20:37:15.752Z</time>
      </trkpt>
      <trkpt lat="42.7214" lon="2.59821">
        <ele>402.255502</ele>
        <time>2026-05-22T20:37:25.350Z</time>
      </trkpt>
      <trkpt lat="42.72143" lon="2.5985">
        <ele>402.697484</ele>
        <time>2026-05-22T20:37:30.383Z</time>
      </trkpt>
      <trkpt lat="42.72149" lon="2.59862">
        <ele>402.661609</ele>
        <time>2026-05-22T20:37:32.332Z</time>
      </trkpt>
      <trkpt lat="42.72161" lon="2.59905">
        <ele>402.270674</ele>
        <time>2026-05-22T20:37:38.100Z</time>
      </trkpt>
      <trkpt lat="42.72171" lon="2.599">
        <ele>402.154</ele>
        <time>2026-05-22T20:37:39.741Z</time>
      </trkpt>
      <trkpt lat="42.72221" lon="2.59871">
        <ele>401.528711</ele>
        <time>2026-05-22T20:37:55.171Z</time>
      </trkpt>
      <trkpt lat="42.72237" lon="2.59867">
        <ele>401.348977</ele>
        <time>2026-05-22T20:37:57.780Z</time>
      </trkpt>
      <trkpt lat="42.72336" lon="2.5986">
        <ele>399.555248</ele>
        <time>2026-05-22T20:38:13.450Z</time>
      </trkpt>
      <trkpt lat="42.72357" lon="2.59853">
        <ele>399.003078</ele>
        <time>2026-05-22T20:38:16.681Z</time>
      </trkpt>
      <trkpt lat="42.72394" lon="2.59848">
        <ele>398.006275</ele>
        <time>2026-05-22T20:38:22.177Z</time>
      </trkpt>
      <trkpt lat="42.72437" lon="2.59829">
        <ele>396.799169</ele>
        <time>2026-05-22T20:38:28.509Z</time>
      </trkpt>
      <trkpt lat="42.72451" lon="2.59826">
        <ele>396.411862</ele>
        <time>2026-05-22T20:38:30.520Z</time>
      </trkpt>
      <trkpt lat="42.72492" lon="2.5983">
        <ele>395.689276</ele>
        <time>2026-05-22T20:38:36.425Z</time>
      </trkpt>
      <trkpt lat="42.72534" lon="2.59821">
        <ele>395.275333</ele>
        <time>2026-05-22T20:38:43.062Z</time>
      </trkpt>
      <trkpt lat="42.72563" lon="2.59821">
        <ele>394.9896</ele>
        <time>2026-05-22T20:38:48.150Z</time>
      </trkpt>
      <trkpt lat="42.72586" lon="2.59831">
        <ele>394.750357</ele>
        <time>2026-05-22T20:38:53.021Z</time>
      </trkpt>
      <trkpt lat="42.72717" lon="2.59906">
        <ele>393.960958</ele>
        <time>2026-05-22T20:39:21.847Z</time>
      </trkpt>
      <trkpt lat="42.72744" lon="2.59916">
        <ele>393.89853</ele>
        <time>2026-05-22T20:39:27.040Z</time>
      </trkpt>
      <trkpt lat="42.72804" lon="2.59919">
        <ele>393.766636</ele>
        <time>2026-05-22T20:39:38.321Z</time>
      </trkpt>
      <trkpt lat="42.72862" lon="2.59939">
        <ele>393.193922</ele>
        <time>2026-05-22T20:39:47.965Z</time>
      </trkpt>
      <trkpt lat="42.72908" lon="2.59937">
        <ele>392.67506</ele>
        <time>2026-05-22T20:39:55.086Z</time>
      </trkpt>
      <trkpt lat="42.72924" lon="2.59933">
        <ele>392.48532</ele>
        <time>2026-05-22T20:39:57.822Z</time>
      </trkpt>
      <trkpt lat="42.72978" lon="2.59905">
        <ele>391.832089</ele>
        <time>2026-05-22T20:40:07.447Z</time>
      </trkpt>
      <trkpt lat="42.72996" lon="2.59905">
        <ele>391.761291</ele>
        <time>2026-05-22T20:40:10.571Z</time>
      </trkpt>
      <trkpt lat="42.73011" lon="2.5991">
        <ele>391.947184</ele>
        <time>2026-05-22T20:40:13.296Z</time>
      </trkpt>
      <trkpt lat="42.73021" lon="2.59921">
        <ele>392.110123</ele>
        <time>2026-05-22T20:40:15.645Z</time>
      </trkpt>
      <trkpt lat="42.73026" lon="2.59935">
        <ele>392.245655</ele>
        <time>2026-05-22T20:40:17.844Z</time>
      </trkpt>
      <trkpt lat="42.73032" lon="2.60033">
        <ele>393.123423</ele>
        <time>2026-05-22T20:40:37.285Z</time>
      </trkpt>
      <trkpt lat="42.73049" lon="2.60082">
        <ele>393.604973</ele>
        <time>2026-05-22T20:40:50.961Z</time>
      </trkpt>
      <trkpt lat="42.73053" lon="2.60096">
        <ele>393.74385</ele>
        <time>2026-05-22T20:40:54.856Z</time>
      </trkpt>
      <trkpt lat="42.73053" lon="2.60108">
        <ele>393.84467</ele>
        <time>2026-05-22T20:40:57.599Z</time>
      </trkpt>
      <trkpt lat="42.73035" lon="2.60151">
        <ele>393.880913</ele>
        <time>2026-05-22T20:41:08.018Z</time>
      </trkpt>
      <trkpt lat="42.73026" lon="2.60183">
        <ele>393.884422</ele>
        <time>2026-05-22T20:41:13.463Z</time>
      </trkpt>
      <trkpt lat="42.73005" lon="2.60222">
        <ele>393.88948</ele>
        <time>2026-05-22T20:41:20.032Z</time>
      </trkpt>
      <trkpt lat="42.73001" lon="2.60235">
        <ele>393.890948</ele>
        <time>2026-05-22T20:41:21.903Z</time>
      </trkpt>
      <trkpt lat="42.72999" lon="2.60252">
        <ele>393.892751</ele>
        <time>2026-05-22T20:41:24.202Z</time>
      </trkpt>
      <trkpt lat="42.73009" lon="2.60307">
        <ele>393.898712</ele>
        <time>2026-05-22T20:41:31.460Z</time>
      </trkpt>
      <trkpt lat="42.7301" lon="2.60328">
        <ele>393.900863</ele>
        <time>2026-05-22T20:41:33.928Z</time>
      </trkpt>
      <trkpt lat="42.73006" lon="2.60354">
        <ele>393.537594</ele>
        <time>2026-05-22T20:41:37.112Z</time>
      </trkpt>
      <trkpt lat="42.7298" lon="2.60455">
        <ele>391.565202</ele>
        <time>2026-05-22T20:41:48.924Z</time>
      </trkpt>
      <trkpt lat="42.72964" lon="2.60483">
        <ele>390.92675</ele>
        <time>2026-05-22T20:41:52.658Z</time>
      </trkpt>
      <trkpt lat="42.72962" lon="2.60496">
        <ele>390.686796</ele>
        <time>2026-05-22T20:41:54.069Z</time>
      </trkpt>
      <trkpt lat="42.72964" lon="2.60511">
        <ele>390.404642</ele>
        <time>2026-05-22T20:41:55.714Z</time>
      </trkpt>
      <trkpt lat="42.72969" lon="2.60525">
        <ele>390.109192</ele>
        <time>2026-05-22T20:41:57.437Z</time>
      </trkpt>
      <trkpt lat="42.73015" lon="2.60566">
        <ele>388.690629</ele>
        <time>2026-05-22T20:42:05.403Z</time>
      </trkpt>
      <trkpt lat="42.73027" lon="2.60584">
        <ele>388.232252</ele>
        <time>2026-05-22T20:42:07.927Z</time>
      </trkpt>
      <trkpt lat="42.73055" lon="2.60638">
        <ele>386.952394</ele>
        <time>2026-05-22T20:42:14.934Z</time>
      </trkpt>
      <trkpt lat="42.73093" lon="2.60696">
        <ele>385.436105</ele>
        <time>2026-05-22T20:42:23.700Z</time>
      </trkpt>
      <trkpt lat="42.73107" lon="2.60722">
        <ele>384.811125</ele>
        <time>2026-05-22T20:42:27.497Z</time>
      </trkpt>
      <trkpt lat="42.73117" lon="2.60761">
        <ele>383.176975</ele>
        <time>2026-05-22T20:42:32.265Z</time>
      </trkpt>
      <trkpt lat="42.73127" lon="2.60778">
        <ele>382.237184</ele>
        <time>2026-05-22T20:42:34.619Z</time>
      </trkpt>
      <trkpt lat="42.73138" lon="2.60785">
        <ele>381.455106</ele>
        <time>2026-05-22T20:42:36.490Z</time>
      </trkpt>
      <trkpt lat="42.73175" lon="2.60794">
        <ele>379.188079</ele>
        <time>2026-05-22T20:42:41.500Z</time>
      </trkpt>
      <trkpt lat="42.73204" lon="2.6081">
        <ele>377.29472</ele>
        <time>2026-05-22T20:42:45.375Z</time>
      </trkpt>
      <trkpt lat="42.73231" lon="2.60821">
        <ele>375.564968</ele>
        <time>2026-05-22T20:42:48.786Z</time>
      </trkpt>
      <trkpt lat="42.73244" lon="2.60825">
        <ele>374.716464</ele>
        <time>2026-05-22T20:42:50.433Z</time>
      </trkpt>
      <trkpt lat="42.73252" lon="2.60822">
        <ele>374.20735</ele>
        <time>2026-05-22T20:42:51.431Z</time>
      </trkpt>
      <trkpt lat="42.73262" lon="2.60812">
        <ele>373.477672</ele>
        <time>2026-05-22T20:42:52.848Z</time>
      </trkpt>
      <trkpt lat="42.73265" lon="2.60789">
        <ele>372.436092</ele>
        <time>2026-05-22T20:42:54.892Z</time>
      </trkpt>
      <trkpt lat="42.73261" lon="2.60719">
        <ele>369.312542</ele>
        <time>2026-05-22T20:43:01.073Z</time>
      </trkpt>
      <trkpt lat="42.73265" lon="2.60699">
        <ele>368.376022</ele>
        <time>2026-05-22T20:43:02.957Z</time>
      </trkpt>
      <trkpt lat="42.73349" lon="2.60589">
        <ele>362.932262</ele>
        <time>2026-05-22T20:43:19.550Z</time>
      </trkpt>
      <trkpt lat="42.73364" lon="2.60582">
        <ele>363.038844</ele>
        <time>2026-05-22T20:43:23.844Z</time>
      </trkpt>
      <trkpt lat="42.73442" lon="2.60603">
        <ele>363.565711</ele>
        <time>2026-05-22T20:43:48.146Z</time>
      </trkpt>
      <trkpt lat="42.73518" lon="2.60634">
        <ele>363.627788</ele>
        <time>2026-05-22T20:44:10.342Z</time>
      </trkpt>
      <trkpt lat="42.73529" lon="2.60638">
        <ele>363.420187</ele>
        <time>2026-05-22T20:44:12.470Z</time>
      </trkpt>
      <trkpt lat="42.73586" lon="2.60682">
        <ele>362.231463</ele>
        <time>2026-05-22T20:44:22.477Z</time>
      </trkpt>
      <trkpt lat="42.736" lon="2.60689">
        <ele>361.940655</ele>
        <time>2026-05-22T20:44:24.740Z</time>
      </trkpt>
      <trkpt lat="42.73613" lon="2.60692">
        <ele>361.705512</ele>
        <time>2026-05-22T20:44:26.533Z</time>
      </trkpt>
      <trkpt lat="42.73627" lon="2.6069">
        <ele>361.453308</ele>
        <time>2026-05-22T20:44:28.472Z</time>
      </trkpt>
      <trkpt lat="42.73673" lon="2.60665">
        <ele>360.567015</ele>
        <time>2026-05-22T20:44:35.563Z</time>
      </trkpt>
      <trkpt lat="42.73687" lon="2.60663">
        <ele>360.363211</ele>
        <time>2026-05-22T20:44:37.637Z</time>
      </trkpt>
      <trkpt lat="42.73697" lon="2.60663">
        <ele>360.210768</ele>
        <time>2026-05-22T20:44:39.176Z</time>
      </trkpt>
      <trkpt lat="42.73716" lon="2.6067">
        <ele>359.911401</ele>
        <time>2026-05-22T20:44:42.207Z</time>
      </trkpt>
      <trkpt lat="42.73738" lon="2.6068">
        <ele>359.562452</ele>
        <time>2026-05-22T20:44:45.847Z</time>
      </trkpt>
      <trkpt lat="42.73746" lon="2.60688">
        <ele>359.408356</ele>
        <time>2026-05-22T20:44:47.506Z</time>
      </trkpt>
      <trkpt lat="42.73777" lon="2.6073">
        <ele>358.753697</ele>
        <time>2026-05-22T20:44:55.180Z</time>
      </trkpt>
      <trkpt lat="42.73781" lon="2.60741">
        <ele>358.609986</ele>
        <time>2026-05-22T20:44:57.006Z</time>
      </trkpt>
      <trkpt lat="42.73784" lon="2.60775">
        <ele>358.235984</ele>
        <time>2026-05-22T20:45:01.662Z</time>
      </trkpt>
      <trkpt lat="42.73784" lon="2.60807">
        <ele>357.803455</ele>
        <time>2026-05-22T20:45:06.159Z</time>
      </trkpt>
      <trkpt lat="42.7379" lon="2.60918">
        <ele>355.582416</ele>
        <time>2026-05-22T20:45:18.703Z</time>
      </trkpt>
      <trkpt lat="42.73793" lon="2.6094">
        <ele>355.139714</ele>
        <time>2026-05-22T20:45:21.026Z</time>
      </trkpt>
      <trkpt lat="42.73799" lon="2.60955">
        <ele>354.793217</ele>
        <time>2026-05-22T20:45:22.845Z</time>
      </trkpt>
      <trkpt lat="42.73845" lon="2.61024">
        <ele>352.887713</ele>
        <time>2026-05-22T20:45:32.333Z</time>
      </trkpt>
      <trkpt lat="42.73877" lon="2.61079">
        <ele>350.89048</ele>
        <time>2026-05-22T20:45:39.380Z</time>
      </trkpt>
      <trkpt lat="42.73894" lon="2.61114">
        <ele>349.676512</ele>
        <time>2026-05-22T20:45:43.633Z</time>
      </trkpt>
      <trkpt lat="42.73905" lon="2.6114">
        <ele>348.809075</ele>
        <time>2026-05-22T20:45:46.701Z</time>
      </trkpt>
      <trkpt lat="42.73911" lon="2.61159">
        <ele>348.232666</ele>
        <time>2026-05-22T20:45:48.769Z</time>
      </trkpt>
      <trkpt lat="42.73915" lon="2.61176">
        <ele>347.717928</ele>
        <time>2026-05-22T20:45:50.623Z</time>
      </trkpt>
      <trkpt lat="42.7392" lon="2.61193">
        <ele>347.208419</ele>
        <time>2026-05-22T20:45:52.471Z</time>
      </trkpt>
      <trkpt lat="42.73934" lon="2.61247">
        <ele>345.885613</ele>
        <time>2026-05-22T20:45:58.446Z</time>
      </trkpt>
      <trkpt lat="42.7397" lon="2.61382">
        <ele>344.269586</ele>
        <time>2026-05-22T20:46:14.123Z</time>
      </trkpt>
      <trkpt lat="42.73979" lon="2.61413">
        <ele>343.897491</ele>
        <time>2026-05-22T20:46:18.359Z</time>
      </trkpt>
      <trkpt lat="42.73985" lon="2.61423">
        <ele>343.752196</ele>
        <time>2026-05-22T20:46:20.316Z</time>
      </trkpt>
      <trkpt lat="42.74001" lon="2.61448">
        <ele>343.375853</ele>
        <time>2026-05-22T20:46:26.280Z</time>
      </trkpt>
      <trkpt lat="42.74005" lon="2.61459">
        <ele>343.511279</ele>
        <time>2026-05-22T20:46:28.600Z</time>
      </trkpt>
      <trkpt lat="42.74013" lon="2.61498">
        <ele>344.343957</ele>
        <time>2026-05-22T20:46:37.505Z</time>
      </trkpt>
      <trkpt lat="42.74016" lon="2.61569">
        <ele>345.815164</ele>
        <time>2026-05-22T20:46:55.158Z</time>
      </trkpt>
      <trkpt lat="42.74011" lon="2.616">
        <ele>346.459213</ele>
        <time>2026-05-22T20:47:03.356Z</time>
      </trkpt>
      <trkpt lat="42.74008" lon="2.61619">
        <ele>346.863097</ele>
        <time>2026-05-22T20:47:08.920Z</time>
      </trkpt>
      <trkpt lat="42.74" lon="2.61632">
        <ele>347.199305</ele>
        <time>2026-05-22T20:47:13.643Z</time>
      </trkpt>
      <trkpt lat="42.7399" lon="2.6164">
        <ele>347.535491</ele>
        <time>2026-05-22T20:47:18.438Z</time>
      </trkpt>
      <trkpt lat="42.7397" lon="2.61644">
        <ele>348.089306</ele>
        <time>2026-05-22T20:47:25.996Z</time>
      </trkpt>
      <trkpt lat="42.7396" lon="2.61651">
        <ele>348.407178</ele>
        <time>2026-05-22T20:47:30.069Z</time>
      </trkpt>
      <trkpt lat="42.73954" lon="2.61661">
        <ele>348.774355</ele>
        <time>2026-05-22T20:47:33.596Z</time>
      </trkpt>
      <trkpt lat="42.73955" lon="2.61674">
        <ele>349.124358</ele>
        <time>2026-05-22T20:47:36.873Z</time>
      </trkpt>
      <trkpt lat="42.73958" lon="2.61685">
        <ele>349.443206</ele>
        <time>2026-05-22T20:47:39.874Z</time>
      </trkpt>
      <trkpt lat="42.74004" lon="2.61753">
        <ele>351.942269</ele>
        <time>2026-05-22T20:48:04.328Z</time>
      </trkpt>
      <trkpt lat="42.74014" lon="2.61773">
        <ele>352.61127</ele>
        <time>2026-05-22T20:48:11.258Z</time>
      </trkpt>
      <trkpt lat="42.74018" lon="2.61787">
        <ele>353.022057</ele>
        <time>2026-05-22T20:48:15.611Z</time>
      </trkpt>
      <trkpt lat="42.74019" lon="2.61822">
        <ele>353.946857</ele>
        <time>2026-05-22T20:48:25.440Z</time>
      </trkpt>
      <trkpt lat="42.74017" lon="2.61862">
        <ele>355.014562</ele>
        <time>2026-05-22T20:48:37.081Z</time>
      </trkpt>
      <trkpt lat="42.74" lon="2.61928">
        <ele>356.074718</ele>
        <time>2026-05-22T20:48:57.781Z</time>
      </trkpt>
      <trkpt lat="42.73993" lon="2.61951">
        <ele>356.456903</ele>
        <time>2026-05-22T20:49:04.982Z</time>
      </trkpt>
      <trkpt lat="42.73983" lon="2.6197">
        <ele>356.807755</ele>
        <time>2026-05-22T20:49:10.586Z</time>
      </trkpt>
      <trkpt lat="42.73934" lon="2.62021">
        <ele>358.087665</ele>
        <time>2026-05-22T20:49:26.045Z</time>
      </trkpt>
      <trkpt lat="42.73931" lon="2.62032">
        <ele>358.260677</ele>
        <time>2026-05-22T20:49:27.877Z</time>
      </trkpt>
      <trkpt lat="42.73932" lon="2.62048">
        <ele>358.506542</ele>
        <time>2026-05-22T20:49:30.057Z</time>
      </trkpt>
      <trkpt lat="42.73939" lon="2.62059">
        <ele>358.702085</ele>
        <time>2026-05-22T20:49:31.762Z</time>
      </trkpt>
      <trkpt lat="42.73953" lon="2.62069">
        <ele>358.747898</ele>
        <time>2026-05-22T20:49:34.529Z</time>
      </trkpt>
      <trkpt lat="42.73988" lon="2.62083">
        <ele>358.853344</ele>
        <time>2026-05-22T20:49:40.615Z</time>
      </trkpt>
      <trkpt lat="42.73999" lon="2.62092">
        <ele>358.890826</ele>
        <time>2026-05-22T20:49:42.747Z</time>
      </trkpt>
      <trkpt lat="42.74006" lon="2.6211">
        <ele>358.932964</ele>
        <time>2026-05-22T20:49:45.177Z</time>
      </trkpt>
      <trkpt lat="42.74012" lon="2.62149">
        <ele>359.017557</ele>
        <time>2026-05-22T20:49:50.152Z</time>
      </trkpt>
      <trkpt lat="42.74042" lon="2.62203">
        <ele>359.159779</ele>
        <time>2026-05-22T20:50:04.790Z</time>
      </trkpt>
      <trkpt lat="42.74046" lon="2.62222">
        <ele>359.200173</ele>
        <time>2026-05-22T20:50:09.899Z</time>
      </trkpt>
      <trkpt lat="42.74046" lon="2.62242">
        <ele>358.99663</ele>
        <time>2026-05-22T20:50:14.696Z</time>
      </trkpt>
      <trkpt lat="42.7404" lon="2.62264">
        <ele>358.60065</ele>
        <time>2026-05-22T20:50:19.682Z</time>
      </trkpt>
      <trkpt lat="42.74023" lon="2.6229">
        <ele>358.017709</ele>
        <time>2026-05-22T20:50:25.868Z</time>
      </trkpt>
      <trkpt lat="42.73998" lon="2.62316">
        <ele>357.294925</ele>
        <time>2026-05-22T20:50:31.546Z</time>
      </trkpt>
      <trkpt lat="42.73994" lon="2.62327">
        <ele>357.073657</ele>
        <time>2026-05-22T20:50:33.102Z</time>
      </trkpt>
      <trkpt lat="42.73997" lon="2.62346">
        <ele>356.763088</ele>
        <time>2026-05-22T20:50:35.175Z</time>
      </trkpt>
      <trkpt lat="42.74004" lon="2.62354">
        <ele>356.534063</ele>
        <time>2026-05-22T20:50:36.616Z</time>
      </trkpt>
      <trkpt lat="42.74044" lon="2.62374">
        <ele>355.561921</ele>
        <time>2026-05-22T20:50:42.233Z</time>
      </trkpt>
      <trkpt lat="42.74061" lon="2.62367">
        <ele>355.143761</ele>
        <time>2026-05-22T20:50:44.497Z</time>
      </trkpt>
      <trkpt lat="42.74109" lon="2.62324">
        <ele>351.794858</ele>
        <time>2026-05-22T20:50:51.508Z</time>
      </trkpt>
      <trkpt lat="42.74145" lon="2.62306">
        <ele>349.477957</ele>
        <time>2026-05-22T20:50:56.337Z</time>
      </trkpt>
      <trkpt lat="42.74158" lon="2.62307">
        <ele>348.73565</ele>
        <time>2026-05-22T20:50:57.917Z</time>
      </trkpt>
      <trkpt lat="42.74168" lon="2.62314">
        <ele>348.036757</ele>
        <time>2026-05-22T20:50:59.446Z</time>
      </trkpt>
      <trkpt lat="42.74179" lon="2.62327">
        <ele>347.179971</ele>
        <time>2026-05-22T20:51:01.336Z</time>
      </trkpt>
      <trkpt lat="42.74241" lon="2.62346">
        <ele>343.741791</ele>
        <time>2026-05-22T20:51:10.127Z</time>
      </trkpt>
      <trkpt lat="42.74245" lon="2.62352">
        <ele>343.566445</ele>
        <time>2026-05-22T20:51:10.876Z</time>
      </trkpt>
      <trkpt lat="42.7425" lon="2.6236">
        <ele>343.281753</ele>
        <time>2026-05-22T20:51:12.148Z</time>
      </trkpt>
      <trkpt lat="42.74264" lon="2.62396">
        <ele>342.29059</ele>
        <time>2026-05-22T20:51:16.474Z</time>
      </trkpt>
      <trkpt lat="42.74273" lon="2.62406">
        <ele>341.914909</ele>
        <time>2026-05-22T20:51:18.021Z</time>
      </trkpt>
      <trkpt lat="42.74285" lon="2.62408">
        <ele>341.506377</ele>
        <time>2026-05-22T20:51:19.724Z</time>
      </trkpt>
      <trkpt lat="42.74297" lon="2.62399">
        <ele>341.038057</ele>
        <time>2026-05-22T20:51:21.674Z</time>
      </trkpt>
      <trkpt lat="42.74323" lon="2.6237">
        <ele>339.919159</ele>
        <time>2026-05-22T20:51:26.404Z</time>
      </trkpt>
      <trkpt lat="42.74337" lon="2.62364">
        <ele>339.411385</ele>
        <time>2026-05-22T20:51:28.577Z</time>
      </trkpt>
      <trkpt lat="42.7435" lon="2.62368">
        <ele>338.977394</ele>
        <time>2026-05-22T20:51:30.447Z</time>
      </trkpt>
      <trkpt lat="42.74431" lon="2.62441">
        <ele>336.067304</ele>
        <time>2026-05-22T20:51:45.267Z</time>
      </trkpt>
      <trkpt lat="42.74465" lon="2.62485">
        <ele>334.724453</ele>
        <time>2026-05-22T20:51:52.408Z</time>
      </trkpt>
      <trkpt lat="42.74492" lon="2.62524">
        <ele>333.587915</ele>
        <time>2026-05-22T20:51:58.133Z</time>
      </trkpt>
      <trkpt lat="42.7455" lon="2.62607">
        <ele>329.812024</ele>
        <time>2026-05-22T20:52:09.554Z</time>
      </trkpt>
      <trkpt lat="42.74561" lon="2.62631">
        <ele>328.766944</ele>
        <time>2026-05-22T20:52:12.352Z</time>
      </trkpt>
      <trkpt lat="42.74568" lon="2.62669">
        <ele>327.341551</ele>
        <time>2026-05-22T20:52:16.113Z</time>
      </trkpt>
      <trkpt lat="42.74571" lon="2.62728">
        <ele>325.187881</ele>
        <time>2026-05-22T20:52:21.790Z</time>
      </trkpt>
      <trkpt lat="42.74563" lon="2.62789">
        <ele>322.776882</ele>
        <time>2026-05-22T20:52:27.725Z</time>
      </trkpt>
      <trkpt lat="42.74562" lon="2.62838">
        <ele>320.736198</ele>
        <time>2026-05-22T20:52:32.537Z</time>
      </trkpt>
      <trkpt lat="42.74568" lon="2.62931">
        <ele>316.899954</ele>
        <time>2026-05-22T20:52:41.525Z</time>
      </trkpt>
      <trkpt lat="42.74577" lon="2.62989">
        <ele>314.474958</ele>
        <time>2026-05-22T20:52:47.182Z</time>
      </trkpt>
      <trkpt lat="42.74585" lon="2.63187">
        <ele>305.502577</ele>
        <time>2026-05-22T20:53:06.019Z</time>
      </trkpt>
      <trkpt lat="42.74591" lon="2.63262">
        <ele>302.2074</ele>
        <time>2026-05-22T20:53:12.998Z</time>
      </trkpt>
      <trkpt lat="42.7461" lon="2.63311">
        <ele>300.035288</ele>
        <time>2026-05-22T20:53:18.227Z</time>
      </trkpt>
      <trkpt lat="42.74635" lon="2.63359">
        <ele>297.743895</ele>
        <time>2026-05-22T20:53:23.858Z</time>
      </trkpt>
      <trkpt lat="42.74624" lon="2.63383">
        <ele>296.666875</ele>
        <time>2026-05-22T20:53:28.797Z</time>
      </trkpt>
      <trkpt lat="42.7463" lon="2.63398">
        <ele>295.984727</ele>
        <time>2026-05-22T20:53:31.948Z</time>
      </trkpt>
      <trkpt lat="42.74635" lon="2.63424">
        <ele>294.935778</ele>
        <time>2026-05-22T20:53:36.840Z</time>
      </trkpt>
      <trkpt lat="42.74633" lon="2.63443">
        <ele>294.211384</ele>
        <time>2026-05-22T20:53:40.226Z</time>
      </trkpt>
      <trkpt lat="42.74642" lon="2.63454">
        <ele>293.567987</ele>
        <time>2026-05-22T20:53:43.199Z</time>
      </trkpt>
      <trkpt lat="42.74682" lon="2.63467">
        <ele>292.046021</ele>
        <time>2026-05-22T20:53:53.716Z</time>
      </trkpt>
      <trkpt lat="42.74677" lon="2.63499">
        <ele>291.198547</ele>
        <time>2026-05-22T20:53:59.902Z</time>
      </trkpt>
      <trkpt lat="42.7467" lon="2.63514">
        <ele>290.737334</ele>
        <time>2026-05-22T20:54:03.286Z</time>
      </trkpt>
      <trkpt lat="42.74663" lon="2.63544">
        <ele>289.933294</ele>
        <time>2026-05-22T20:54:09.283Z</time>
      </trkpt>
      <trkpt lat="42.74673" lon="2.6356">
        <ele>289.378908</ele>
        <time>2026-05-22T20:54:13.467Z</time>
      </trkpt>
      <trkpt lat="42.74695" lon="2.63585">
        <ele>288.375186</ele>
        <time>2026-05-22T20:54:20.832Z</time>
      </trkpt>
      <trkpt lat="42.747" lon="2.6359">
        <ele>288.173251</ele>
        <time>2026-05-22T20:54:22.250Z</time>
      </trkpt>
      <trkpt lat="42.74705" lon="2.63579">
        <ele>287.848347</ele>
        <time>2026-05-22T20:54:24.625Z</time>
      </trkpt>
      <trkpt lat="42.74752" lon="2.63522">
        <ele>285.293407</ele>
        <time>2026-05-22T20:54:34.020Z</time>
      </trkpt>
      <trkpt lat="42.74781" lon="2.63496">
        <ele>283.797986</ele>
        <time>2026-05-22T20:54:39.189Z</time>
      </trkpt>
      <trkpt lat="42.7483" lon="2.63431">
        <ele>280.807623</ele>
        <time>2026-05-22T20:54:49.042Z</time>
      </trkpt>
      <trkpt lat="42.74894" lon="2.63496">
        <ele>277.223128</ele>
        <time>2026-05-22T20:54:59.635Z</time>
      </trkpt>
      <trkpt lat="42.74918" lon="2.63511">
        <ele>276.041683</ele>
        <time>2026-05-22T20:55:03.096Z</time>
      </trkpt>
      <trkpt lat="42.74955" lon="2.63515">
        <ele>274.343398</ele>
        <time>2026-05-22T20:55:08.091Z</time>
      </trkpt>
      <trkpt lat="42.7498" lon="2.63523">
        <ele>273.187171</ele>
        <time>2026-05-22T20:55:11.560Z</time>
      </trkpt>
      <trkpt lat="42.74996" lon="2.63533">
        <ele>272.385511</ele>
        <time>2026-05-22T20:55:13.999Z</time>
      </trkpt>
      <trkpt lat="42.75012" lon="2.63537">
        <ele>271.628359</ele>
        <time>2026-05-22T20:55:16.342Z</time>
      </trkpt>
      <trkpt lat="42.75046" lon="2.63537">
        <ele>270.331198</ele>
        <time>2026-05-22T20:55:21.186Z</time>
      </trkpt>
      <trkpt lat="42.75063" lon="2.63542">
        <ele>269.765626</ele>
        <time>2026-05-22T20:55:23.585Z</time>
      </trkpt>
      <trkpt lat="42.75089" lon="2.63558">
        <ele>268.771271</ele>
        <time>2026-05-22T20:55:27.791Z</time>
      </trkpt>
      <trkpt lat="42.75131" lon="2.63578">
        <ele>267.287872</ele>
        <time>2026-05-22T20:55:34.063Z</time>
      </trkpt>
      <trkpt lat="42.75154" lon="2.63602">
        <ele>266.291848</ele>
        <time>2026-05-22T20:55:38.312Z</time>
      </trkpt>
      <trkpt lat="42.75165" lon="2.63608">
        <ele>265.903952</ele>
        <time>2026-05-22T20:55:39.963Z</time>
      </trkpt>
      <trkpt lat="42.75181" lon="2.63611">
        <ele>265.365303</ele>
        <time>2026-05-22T20:55:42.247Z</time>
      </trkpt>
      <trkpt lat="42.75214" lon="2.63608">
        <ele>263.989916</ele>
        <time>2026-05-22T20:55:47.070Z</time>
      </trkpt>
      <trkpt lat="42.75241" lon="2.63597">
        <ele>262.740483</ele>
        <time>2026-05-22T20:55:51.096Z</time>
      </trkpt>
      <trkpt lat="42.75255" lon="2.63582">
        <ele>261.95278</ele>
        <time>2026-05-22T20:55:53.568Z</time>
      </trkpt>
      <trkpt lat="42.75287" lon="2.63512">
        <ele>259.257307</ele>
        <time>2026-05-22T20:56:01.673Z</time>
      </trkpt>
      <trkpt lat="42.75296" lon="2.63499">
        <ele>258.659495</ele>
        <time>2026-05-22T20:56:03.460Z</time>
      </trkpt>
      <trkpt lat="42.75312" lon="2.63485">
        <ele>257.83921</ele>
        <time>2026-05-22T20:56:05.895Z</time>
      </trkpt>
      <trkpt lat="42.75329" lon="2.63475">
        <ele>257.004553</ele>
        <time>2026-05-22T20:56:08.360Z</time>
      </trkpt>
      <trkpt lat="42.75343" lon="2.63474">
        <ele>256.188873</ele>
        <time>2026-05-22T20:56:10.255Z</time>
      </trkpt>
      <trkpt lat="42.75378" lon="2.63485">
        <ele>254.155589</ele>
        <time>2026-05-22T20:56:14.923Z</time>
      </trkpt>
      <trkpt lat="42.75419" lon="2.63482">
        <ele>251.828588</ele>
        <time>2026-05-22T20:56:20.238Z</time>
      </trkpt>
      <trkpt lat="42.75433" lon="2.63488">
        <ele>250.957967</ele>
        <time>2026-05-22T20:56:22.197Z</time>
      </trkpt>
      <trkpt lat="42.75457" lon="2.63508">
        <ele>249.349064</ele>
        <time>2026-05-22T20:56:25.871Z</time>
      </trkpt>
      <trkpt lat="42.75493" lon="2.6356">
        <ele>246.436197</ele>
        <time>2026-05-22T20:56:32.612Z</time>
      </trkpt>
      <trkpt lat="42.75506" lon="2.63578">
        <ele>245.4577</ele>
        <time>2026-05-22T20:56:35.067Z</time>
      </trkpt>
      <trkpt lat="42.75529" lon="2.63599">
        <ele>243.990604</ele>
        <time>2026-05-22T20:56:38.754Z</time>
      </trkpt>
      <trkpt lat="42.7555" lon="2.63611">
        <ele>242.804434</ele>
        <time>2026-05-22T20:56:41.754Z</time>
      </trkpt>
      <trkpt lat="42.75579" lon="2.63634">
        <ele>241.062176</ele>
        <time>2026-05-22T20:56:46.178Z</time>
      </trkpt>
      <trkpt lat="42.75612" lon="2.63684">
        <ele>238.501698</ele>
        <time>2026-05-22T20:56:52.744Z</time>
      </trkpt>
      <trkpt lat="42.75617" lon="2.63695">
        <ele>237.991002</ele>
        <time>2026-05-22T20:56:54.082Z</time>
      </trkpt>
      <trkpt lat="42.75621" lon="2.63711">
        <ele>237.381058</ele>
        <time>2026-05-22T20:56:55.679Z</time>
      </trkpt>
      <trkpt lat="42.75621" lon="2.63732">
        <ele>236.602058</ele>
        <time>2026-05-22T20:56:57.772Z</time>
      </trkpt>
      <trkpt lat="42.75617" lon="2.63755">
        <ele>235.705408</ele>
        <time>2026-05-22T20:57:00.172Z</time>
      </trkpt>
      <trkpt lat="42.75612" lon="2.63783">
        <ele>234.638817</ele>
        <time>2026-05-22T20:57:03.018Z</time>
      </trkpt>
      <trkpt lat="42.75594" lon="2.63836">
        <ele>232.461534</ele>
        <time>2026-05-22T20:57:08.770Z</time>
      </trkpt>
      <trkpt lat="42.75593" lon="2.63848">
        <ele>232.043058</ele>
        <time>2026-05-22T20:57:09.862Z</time>
      </trkpt>
      <trkpt lat="42.756" lon="2.63896">
        <ele>230.228904</ele>
        <time>2026-05-22T20:57:14.633Z</time>
      </trkpt>
      <trkpt lat="42.75606" lon="2.63911">
        <ele>229.572425</ele>
        <time>2026-05-22T20:57:16.346Z</time>
      </trkpt>
      <trkpt lat="42.75632" lon="2.63961">
        <ele>227.245587</ele>
        <time>2026-05-22T20:57:22.238Z</time>
      </trkpt>
      <trkpt lat="42.7564" lon="2.63981">
        <ele>226.320423</ele>
        <time>2026-05-22T20:57:24.476Z</time>
      </trkpt>
      <trkpt lat="42.75667" lon="2.64025">
        <ele>224.062366</ele>
        <time>2026-05-22T20:57:29.908Z</time>
      </trkpt>
      <trkpt lat="42.75681" lon="2.64055">
        <ele>222.670123</ele>
        <time>2026-05-22T20:57:33.257Z</time>
      </trkpt>
      <trkpt lat="42.75689" lon="2.64068">
        <ele>222.00675</ele>
        <time>2026-05-22T20:57:34.860Z</time>
      </trkpt>
      <trkpt lat="42.7572" lon="2.64097">
        <ele>219.937681</ele>
        <time>2026-05-22T20:57:39.936Z</time>
      </trkpt>
      <trkpt lat="42.75764" lon="2.64122">
        <ele>217.572142</ele>
        <time>2026-05-22T20:57:46.257Z</time>
      </trkpt>
      <trkpt lat="42.75775" lon="2.64138">
        <ele>216.795933</ele>
        <time>2026-05-22T20:57:48.514Z</time>
      </trkpt>
      <trkpt lat="42.75788" lon="2.64174">
        <ele>215.417897</ele>
        <time>2026-05-22T20:57:52.536Z</time>
      </trkpt>
      <trkpt lat="42.7579" lon="2.64195">
        <ele>214.687024</ele>
        <time>2026-05-22T20:57:54.690Z</time>
      </trkpt>
      <trkpt lat="42.75788" lon="2.64229">
        <ele>213.520701</ele>
        <time>2026-05-22T20:57:58.147Z</time>
      </trkpt>
      <trkpt lat="42.75797" lon="2.6426">
        <ele>212.398786</ele>
        <time>2026-05-22T20:58:01.445Z</time>
      </trkpt>
      <trkpt lat="42.75817" lon="2.64293">
        <ele>210.912462</ele>
        <time>2026-05-22T20:58:05.789Z</time>
      </trkpt>
      <trkpt lat="42.75828" lon="2.64303">
        <ele>210.315609</ele>
        <time>2026-05-22T20:58:07.498Z</time>
      </trkpt>
      <trkpt lat="42.75858" lon="2.64311">
        <ele>208.465234</ele>
        <time>2026-05-22T20:58:11.556Z</time>
      </trkpt>
      <trkpt lat="42.75901" lon="2.64331">
        <ele>205.703993</ele>
        <time>2026-05-22T20:58:17.337Z</time>
      </trkpt>
      <trkpt lat="42.75922" lon="2.64352">
        <ele>204.119114</ele>
        <time>2026-05-22T20:58:20.646Z</time>
      </trkpt>
      <trkpt lat="42.75928" lon="2.64366">
        <ele>203.400546</ele>
        <time>2026-05-22T20:58:22.157Z</time>
      </trkpt>
      <trkpt lat="42.75937" lon="2.64425">
        <ele>200.691667</ele>
        <time>2026-05-22T20:58:27.856Z</time>
      </trkpt>
      <trkpt lat="42.75943" lon="2.64439">
        <ele>199.942928</ele>
        <time>2026-05-22T20:58:29.414Z</time>
      </trkpt>
      <trkpt lat="42.75957" lon="2.64449">
        <ele>198.990846</ele>
        <time>2026-05-22T20:58:31.432Z</time>
      </trkpt>
      <trkpt lat="42.75965" lon="2.6445">
        <ele>198.574927</ele>
        <time>2026-05-22T20:58:32.351Z</time>
      </trkpt>
      <trkpt lat="42.75988" lon="2.64443">
        <ele>197.203996</ele>
        <time>2026-05-22T20:58:35.395Z</time>
      </trkpt>
      <trkpt lat="42.75996" lon="2.64443">
        <ele>196.708686</ele>
        <time>2026-05-22T20:58:36.503Z</time>
      </trkpt>
      <trkpt lat="42.76015" lon="2.64452">
        <ele>195.571837</ele>
        <time>2026-05-22T20:58:39.047Z</time>
      </trkpt>
      <trkpt lat="42.76033" lon="2.64471">
        <ele>194.27607</ele>
        <time>2026-05-22T20:58:41.985Z</time>
      </trkpt>
      <trkpt lat="42.76037" lon="2.64481">
        <ele>193.777076</ele>
        <time>2026-05-22T20:58:43.130Z</time>
      </trkpt>
      <trkpt lat="42.76038" lon="2.64492">
        <ele>193.305151</ele>
        <time>2026-05-22T20:58:44.213Z</time>
      </trkpt>
      <trkpt lat="42.76031" lon="2.64563">
        <ele>190.28383</ele>
        <time>2026-05-22T20:58:51.157Z</time>
      </trkpt>
      <trkpt lat="42.76022" lon="2.64591">
        <ele>188.987391</ele>
        <time>2026-05-22T20:58:54.092Z</time>
      </trkpt>
      <trkpt lat="42.76004" lon="2.64634">
        <ele>186.670577</ele>
        <time>2026-05-22T20:58:58.848Z</time>
      </trkpt>
      <trkpt lat="42.76001" lon="2.64656">
        <ele>185.602669</ele>
        <time>2026-05-22T20:59:01.035Z</time>
      </trkpt>
      <trkpt lat="42.76004" lon="2.64666">
        <ele>185.071383</ele>
        <time>2026-05-22T20:59:02.116Z</time>
      </trkpt>
      <trkpt lat="42.76012" lon="2.64679">
        <ele>184.271502</ele>
        <time>2026-05-22T20:59:03.744Z</time>
      </trkpt>
      <trkpt lat="42.76032" lon="2.64697">
        <ele>182.753627</ele>
        <time>2026-05-22T20:59:06.792Z</time>
      </trkpt>
      <trkpt lat="42.76061" lon="2.6475">
        <ele>179.579428</ele>
        <time>2026-05-22T20:59:12.978Z</time>
      </trkpt>
      <trkpt lat="42.76066" lon="2.6478">
        <ele>178.124276</ele>
        <time>2026-05-22T20:59:15.745Z</time>
      </trkpt>
      <trkpt lat="42.76065" lon="2.64819">
        <ele>176.25074</ele>
        <time>2026-05-22T20:59:19.266Z</time>
      </trkpt>
      <trkpt lat="42.76073" lon="2.64843">
        <ele>174.980429</ele>
        <time>2026-05-22T20:59:21.634Z</time>
      </trkpt>
      <trkpt lat="42.76101" lon="2.64895">
        <ele>171.855085</ele>
        <time>2026-05-22T20:59:27.553Z</time>
      </trkpt>
      <trkpt lat="42.76124" lon="2.64905">
        <ele>170.283787</ele>
        <time>2026-05-22T20:59:30.621Z</time>
      </trkpt>
      <trkpt lat="42.76157" lon="2.6491">
        <ele>168.138001</ele>
        <time>2026-05-22T20:59:34.948Z</time>
      </trkpt>
      <trkpt lat="42.76173" lon="2.64904">
        <ele>167.038384</ele>
        <time>2026-05-22T20:59:37.221Z</time>
      </trkpt>
      <trkpt lat="42.76183" lon="2.64892">
        <ele>166.198232</ele>
        <time>2026-05-22T20:59:38.963Z</time>
      </trkpt>
      <trkpt lat="42.7619" lon="2.64875">
        <ele>165.23974</ele>
        <time>2026-05-22T20:59:40.972Z</time>
      </trkpt>
      <trkpt lat="42.7621" lon="2.6479">
        <ele>161.033863</ele>
        <time>2026-05-22T20:59:49.714Z</time>
      </trkpt>
      <trkpt lat="42.76216" lon="2.64776">
        <ele>160.313795</ele>
        <time>2026-05-22T20:59:51.169Z</time>
      </trkpt>
      <trkpt lat="42.76223" lon="2.64768">
        <ele>159.70388</ele>
        <time>2026-05-22T20:59:52.400Z</time>
      </trkpt>
      <trkpt lat="42.76241" lon="2.64758">
        <ele>158.454667</ele>
        <time>2026-05-22T20:59:54.882Z</time>
      </trkpt>
      <trkpt lat="42.76255" lon="2.64763">
        <ele>157.562145</ele>
        <time>2026-05-22T20:59:56.637Z</time>
      </trkpt>
      <trkpt lat="42.76269" lon="2.64783">
        <ele>156.274976</ele>
        <time>2026-05-22T20:59:59.151Z</time>
      </trkpt>
      <trkpt lat="42.76275" lon="2.64799">
        <ele>155.405012</ele>
        <time>2026-05-22T21:00:00.840Z</time>
      </trkpt>
      <trkpt lat="42.76287" lon="2.64864">
        <ele>152.103095</ele>
        <time>2026-05-22T21:00:06.914Z</time>
      </trkpt>
      <trkpt lat="42.76309" lon="2.64936">
        <ele>148.117922</ele>
        <time>2026-05-22T21:00:14.034Z</time>
      </trkpt>
      <trkpt lat="42.7631" lon="2.64942">
        <ele>147.788995</ele>
        <time>2026-05-22T21:00:14.628Z</time>
      </trkpt>
      <trkpt lat="42.76313" lon="2.6497">
        <ele>146.342371</ele>
        <time>2026-05-22T21:00:17.281Z</time>
      </trkpt>
      <trkpt lat="42.76307" lon="2.65018">
        <ele>143.805969</ele>
        <time>2026-05-22T21:00:21.919Z</time>
      </trkpt>
      <trkpt lat="42.76307" lon="2.65031">
        <ele>143.118826</ele>
        <time>2026-05-22T21:00:23.183Z</time>
      </trkpt>
      <trkpt lat="42.76326" lon="2.65108">
        <ele>139.171622</ele>
        <time>2026-05-22T21:00:30.722Z</time>
      </trkpt>
      <trkpt lat="42.76345" lon="2.65136">
        <ele>137.375497</ele>
        <time>2026-05-22T21:00:34.292Z</time>
      </trkpt>
      <trkpt lat="42.76363" lon="2.65151">
        <ele>136.0622</ele>
        <time>2026-05-22T21:00:36.932Z</time>
      </trkpt>
      <trkpt lat="42.76372" lon="2.65153">
        <ele>135.471181</ele>
        <time>2026-05-22T21:00:38.140Z</time>
      </trkpt>
      <trkpt lat="42.7638" lon="2.65151">
        <ele>134.937211</ele>
        <time>2026-05-22T21:00:39.218Z</time>
      </trkpt>
      <trkpt lat="42.76417" lon="2.6512">
        <ele>132.20411</ele>
        <time>2026-05-22T21:00:44.746Z</time>
      </trkpt>
      <trkpt lat="42.76437" lon="2.65098">
        <ele>130.577755</ele>
        <time>2026-05-22T21:00:48.017Z</time>
      </trkpt>
      <trkpt lat="42.76471" lon="2.65079">
        <ele>128.362118</ele>
        <time>2026-05-22T21:00:52.770Z</time>
      </trkpt>
      <trkpt lat="42.76507" lon="2.65066">
        <ele>126.156383</ele>
        <time>2026-05-22T21:00:57.630Z</time>
      </trkpt>
      <trkpt lat="42.7656" lon="2.65054">
        <ele>123.028699</ele>
        <time>2026-05-22T21:01:04.497Z</time>
      </trkpt>
      <trkpt lat="42.76574" lon="2.65054">
        <ele>122.223489</ele>
        <time>2026-05-22T21:01:06.235Z</time>
      </trkpt>
      <trkpt lat="42.76599" lon="2.6507">
        <ele>120.561121</ele>
        <time>2026-05-22T21:01:09.863Z</time>
      </trkpt>
      <trkpt lat="42.76655" lon="2.65115">
        <ele>117.651598</ele>
        <time>2026-05-22T21:01:18.561Z</time>
      </trkpt>
      <trkpt lat="42.76699" lon="2.65153">
        <ele>115.648887</ele>
        <time>2026-05-22T21:01:25.813Z</time>
      </trkpt>
      <trkpt lat="42.76712" lon="2.65157">
        <ele>115.129423</ele>
        <time>2026-05-22T21:01:27.760Z</time>
      </trkpt>
      <trkpt lat="42.76719" lon="2.65133">
        <ele>114.379649</ele>
        <time>2026-05-22T21:01:30.605Z</time>
      </trkpt>
      <trkpt lat="42.76722" lon="2.65125">
        <ele>114.130695</ele>
        <time>2026-05-22T21:01:31.561Z</time>
      </trkpt>
      <trkpt lat="42.76738" lon="2.65101">
        <ele>113.211539</ele>
        <time>2026-05-22T21:01:35.033Z</time>
      </trkpt>
      <trkpt lat="42.76753" lon="2.65099">
        <ele>112.630821</ele>
        <time>2026-05-22T21:01:37.211Z</time>
      </trkpt>
      <trkpt lat="42.76765" lon="2.65104">
        <ele>112.054275</ele>
        <time>2026-05-22T21:01:39.076Z</time>
      </trkpt>
      <trkpt lat="42.76799" lon="2.65146">
        <ele>109.804806</ele>
        <time>2026-05-22T21:01:45.732Z</time>
      </trkpt>
      <trkpt lat="42.76807" lon="2.65157">
        <ele>109.237549</ele>
        <time>2026-05-22T21:01:47.369Z</time>
      </trkpt>
      <trkpt lat="42.76818" lon="2.65165">
        <ele>108.598254</ele>
        <time>2026-05-22T21:01:49.061Z</time>
      </trkpt>
      <trkpt lat="42.76839" lon="2.6517">
        <ele>107.570372</ele>
        <time>2026-05-22T21:01:51.798Z</time>
      </trkpt>
      <trkpt lat="42.76897" lon="2.65188">
        <ele>104.623395</ele>
        <time>2026-05-22T21:01:59.470Z</time>
      </trkpt>
      <trkpt lat="42.7691" lon="2.65187">
        <ele>103.971091</ele>
        <time>2026-05-22T21:02:01.153Z</time>
      </trkpt>
      <trkpt lat="42.76917" lon="2.65176">
        <ele>103.469536</ele>
        <time>2026-05-22T21:02:02.455Z</time>
      </trkpt>
      <trkpt lat="42.7694" lon="2.65063">
        <ele>99.931538</ele>
        <time>2026-05-22T21:02:13.648Z</time>
      </trkpt>
      <trkpt lat="42.76942" lon="2.65052">
        <ele>99.581949</ele>
        <time>2026-05-22T21:02:14.768Z</time>
      </trkpt>
      <trkpt lat="42.76946" lon="2.6503">
        <ele>98.905317</ele>
        <time>2026-05-22T21:02:16.949Z</time>
      </trkpt>
      <trkpt lat="42.76947" lon="2.65017">
        <ele>98.508095</ele>
        <time>2026-05-22T21:02:18.346Z</time>
      </trkpt>
      <trkpt lat="42.76943" lon="2.65001">
        <ele>98.009498</ele>
        <time>2026-05-22T21:02:20.137Z</time>
      </trkpt>
      <trkpt lat="42.76936" lon="2.6499">
        <ele>97.546542</ele>
        <time>2026-05-22T21:02:21.856Z</time>
      </trkpt>
      <trkpt lat="42.76925" lon="2.64962">
        <ele>96.595456</ele>
        <time>2026-05-22T21:02:25.564Z</time>
      </trkpt>
      <trkpt lat="42.76925" lon="2.64945">
        <ele>96.138717</ele>
        <time>2026-05-22T21:02:27.770Z</time>
      </trkpt>
      <trkpt lat="42.76928" lon="2.64927">
        <ele>96.158426</ele>
        <time>2026-05-22T21:02:30.215Z</time>
      </trkpt>
      <trkpt lat="42.76922" lon="2.64927">
        <ele>96.167327</ele>
        <time>2026-05-22T21:02:31.449Z</time>
      </trkpt>
      <trkpt lat="42.7691" lon="2.64926">
        <ele>96.184169</ele>
        <time>2026-05-22T21:02:33.820Z</time>
      </trkpt>
      <trkpt lat="42.76892" lon="2.64919">
        <ele>96.212223</ele>
        <time>2026-05-22T21:02:37.582Z</time>
      </trkpt>
      <trkpt lat="42.7687" lon="2.64902">
        <ele>96.249321</ele>
        <time>2026-05-22T21:02:42.580Z</time>
      </trkpt>
      <trkpt lat="42.76731" lon="2.64759">
        <ele>97.153298</ele>
        <time>2026-05-22T21:03:21.402Z</time>
      </trkpt>
      <trkpt lat="42.7671" lon="2.64733">
        <ele>97.459636</ele>
        <time>2026-05-22T21:03:28.660Z</time>
      </trkpt>
      <trkpt lat="42.76615" lon="2.64595">
        <ele>99.432582</ele>
        <time>2026-05-22T21:04:05.031Z</time>
      </trkpt>
      <trkpt lat="42.76602" lon="2.64572">
        <ele>99.839708</ele>
        <time>2026-05-22T21:04:10.844Z</time>
      </trkpt>
      <trkpt lat="42.76584" lon="2.64516">
        <ele>100.691623</ele>
        <time>2026-05-22T21:04:23.893Z</time>
      </trkpt>
      <trkpt lat="42.76572" lon="2.64434">
        <ele>101.852171</ele>
        <time>2026-05-22T21:04:43.044Z</time>
      </trkpt>
      <trkpt lat="42.76566" lon="2.6436">
        <ele>102.784772</ele>
        <time>2026-05-22T21:05:00.129Z</time>
      </trkpt>
      <trkpt lat="42.76561" lon="2.64331">
        <ele>103.159044</ele>
        <time>2026-05-22T21:05:06.789Z</time>
      </trkpt>
      <trkpt lat="42.76527" lon="2.64236">
        <ele>104.476694</ele>
        <time>2026-05-22T21:05:27.745Z</time>
      </trkpt>
      <trkpt lat="42.76518" lon="2.64193">
        <ele>104.811679</ele>
        <time>2026-05-22T21:05:34.966Z</time>
      </trkpt>
      <trkpt lat="42.76522" lon="2.64131">
        <ele>104.817068</ele>
        <time>2026-05-22T21:05:44.131Z</time>
      </trkpt>
      <trkpt lat="42.76524" lon="2.64025">
        <ele>104.826276</ele>
        <time>2026-05-22T21:05:58.504Z</time>
      </trkpt>
      <trkpt lat="42.76534" lon="2.6394">
        <ele>104.986783</ele>
        <time>2026-05-22T21:06:10.041Z</time>
      </trkpt>
      <trkpt lat="42.76536" lon="2.63902">
        <ele>105.19412</ele>
        <time>2026-05-22T21:06:15.278Z</time>
      </trkpt>
      <trkpt lat="42.76537" lon="2.63836">
        <ele>105.557397</ele>
        <time>2026-05-22T21:06:25.567Z</time>
      </trkpt>
      <trkpt lat="42.76532" lon="2.63791">
        <ele>105.812959</ele>
        <time>2026-05-22T21:06:33.855Z</time>
      </trkpt>
      <trkpt lat="42.76514" lon="2.63734">
        <ele>106.155142</ele>
        <time>2026-05-22T21:06:46.275Z</time>
      </trkpt>
      <trkpt lat="42.765" lon="2.63702">
        <ele>106.738806</ele>
        <time>2026-05-22T21:06:54.241Z</time>
      </trkpt>
      <trkpt lat="42.76432" lon="2.63569">
        <ele>109.610311</ele>
        <time>2026-05-22T21:07:30.556Z</time>
      </trkpt>
      <trkpt lat="42.764" lon="2.63476">
        <ele>111.660808</ele>
        <time>2026-05-22T21:07:56.968Z</time>
      </trkpt>
      <trkpt lat="42.76392" lon="2.63442">
        <ele>112.466423</ele>
        <time>2026-05-22T21:08:07.160Z</time>
      </trkpt>
      <trkpt lat="42.76387" lon="2.63363">
        <ele>114.24109</ele>
        <time>2026-05-22T21:08:29.328Z</time>
      </trkpt>
      <trkpt lat="42.76383" lon="2.6333">
        <ele>114.980325</ele>
        <time>2026-05-22T21:08:37.885Z</time>
      </trkpt>
      <trkpt lat="42.76374" lon="2.633">
        <ele>115.721951</ele>
        <time>2026-05-22T21:08:45.952Z</time>
      </trkpt>
      <trkpt lat="42.76359" lon="2.63263">
        <ele>116.123708</ele>
        <time>2026-05-22T21:08:54.765Z</time>
      </trkpt>
      <trkpt lat="42.76311" lon="2.63036">
        <ele>117.396893</ele>
        <time>2026-05-22T21:09:27.692Z</time>
      </trkpt>
      <trkpt lat="42.7631" lon="2.63013">
        <ele>117.760727</ele>
        <time>2026-05-22T21:09:31.708Z</time>
      </trkpt>
      <trkpt lat="42.76313" lon="2.62994">
        <ele>118.078792</ele>
        <time>2026-05-22T21:09:35.594Z</time>
      </trkpt>
      <trkpt lat="42.76346" lon="2.62892">
        <ele>119.856863</ele>
        <time>2026-05-22T21:10:03.159Z</time>
      </trkpt>
      <trkpt lat="42.76351" lon="2.62845">
        <ele>120.620988</ele>
        <time>2026-05-22T21:10:16.817Z</time>
      </trkpt>
      <trkpt lat="42.76355" lon="2.62829">
        <ele>120.885505</ele>
        <time>2026-05-22T21:10:20.745Z</time>
      </trkpt>
      <trkpt lat="42.76366" lon="2.62809">
        <ele>121.118332</ele>
        <time>2026-05-22T21:10:26.262Z</time>
      </trkpt>
      <trkpt lat="42.7641" lon="2.62762">
        <ele>121.643899</ele>
        <time>2026-05-22T21:10:41.689Z</time>
      </trkpt>
      <trkpt lat="42.76415" lon="2.62754">
        <ele>121.721178</ele>
        <time>2026-05-22T21:10:43.563Z</time>
      </trkpt>
      <trkpt lat="42.76424" lon="2.62734">
        <ele>121.886668</ele>
        <time>2026-05-22T21:10:47.824Z</time>
      </trkpt>
      <trkpt lat="42.76429" lon="2.62717">
        <ele>122.013684</ele>
        <time>2026-05-22T21:10:50.854Z</time>
      </trkpt>
      <trkpt lat="42.76461" lon="2.62617">
        <ele>122.666179</ele>
        <time>2026-05-22T21:11:05.426Z</time>
      </trkpt>
      <trkpt lat="42.76488" lon="2.62553">
        <ele>122.459303</ele>
        <time>2026-05-22T21:11:15.380Z</time>
      </trkpt>
      <trkpt lat="42.76502" lon="2.62502">
        <ele>122.309776</ele>
        <time>2026-05-22T21:11:23.066Z</time>
      </trkpt>
      <trkpt lat="42.76536" lon="2.62352">
        <ele>122.127271</ele>
        <time>2026-05-22T21:11:43.681Z</time>
      </trkpt>
      <trkpt lat="42.76555" lon="2.62269">
        <ele>122.319132</ele>
        <time>2026-05-22T21:11:53.961Z</time>
      </trkpt>
      <trkpt lat="42.76564" lon="2.62174">
        <ele>122.529109</ele>
        <time>2026-05-22T21:12:09.355Z</time>
      </trkpt>
      <trkpt lat="42.7657" lon="2.62136">
        <ele>124.036288</ele>
        <time>2026-05-22T21:12:19.531Z</time>
      </trkpt>
      <trkpt lat="42.76595" lon="2.62043">
        <ele>129.232453</ele>
        <time>2026-05-22T21:12:58.741Z</time>
      </trkpt>
      <trkpt lat="42.76613" lon="2.62013">
        <ele>131.287472</ele>
        <time>2026-05-22T21:13:18.671Z</time>
      </trkpt>
      <trkpt lat="42.76623" lon="2.62007">
        <ele>132.066294</ele>
        <time>2026-05-22T21:13:26.364Z</time>
      </trkpt>
      <trkpt lat="42.76633" lon="2.62006">
        <ele>132.734421</ele>
        <time>2026-05-22T21:13:32.992Z</time>
      </trkpt>
      <trkpt lat="42.76642" lon="2.62008">
        <ele>133.386055</ele>
        <time>2026-05-22T21:13:39.278Z</time>
      </trkpt>
      <trkpt lat="42.76675" lon="2.62025">
        <ele>135.407313</ele>
        <time>2026-05-22T21:14:02.657Z</time>
      </trkpt>
      <trkpt lat="42.76688" lon="2.62021">
        <ele>135.407313</ele>
        <time>2026-05-22T21:14:11.179Z</time>
      </trkpt>
      <trkpt lat="42.767" lon="2.62008">
        <ele>135.407313</ele>
        <time>2026-05-22T21:14:20.617Z</time>
      </trkpt>
      <trkpt lat="42.76705" lon="2.61993">
        <ele>135.407313</ele>
        <time>2026-05-22T21:14:27.730Z</time>
      </trkpt>
      <trkpt lat="42.76703" lon="2.61973">
        <ele>135.407313</ele>
        <time>2026-05-22T21:14:35.423Z</time>
      </trkpt>
      <trkpt lat="42.76697" lon="2.61958">
        <ele>135.407313</ele>
        <time>2026-05-22T21:14:41.609Z</time>
      </trkpt>
      <trkpt lat="42.76711" lon="2.61964">
        <ele>135.407313</ele>
        <time>2026-05-22T21:14:48.298Z</time>
      </trkpt>
      <trkpt lat="42.76727" lon="2.61979">
        <ele>135.407313</ele>
        <time>2026-05-22T21:14:56.010Z</time>
      </trkpt>
      <trkpt lat="42.76743" lon="2.61985">
        <ele>135.407313</ele>
        <time>2026-05-22T21:15:02.190Z</time>
      </trkpt>
      <trkpt lat="42.76742" lon="2.61993">
        <ele>135.407313</ele>
        <time>2026-05-22T21:15:04.184Z</time>
      </trkpt>
      <trkpt lat="42.7675" lon="2.62004">
        <ele>135.407313</ele>
        <time>2026-05-22T21:15:08.392Z</time>
      </trkpt>
    </trkseg>
  </trk>
</gpx>